<?xml version="1.0" encoding="UTF-8" standalone="no" ?><gpx xmlns="http://www.topografix.com/GPX/1/1" xmlns:gpxx="http://www.garmin.com/xmlschemas/GpxExtensions/v3" xmlns:wptx1="http://www.garmin.com/xmlschemas/WaypointExtension/v1" xmlns:gpxtpx="http://www.garmin.com/xmlschemas/TrackPointExtension/v1" creator="Dakota 20" version="1.1" xmlns:xsi="http://www.w3.org/2001/XMLSchema-instance" xsi:schemaLocation="http://www.topografix.com/GPX/1/1 http://www.topografix.com/GPX/1/1/gpx.xsd http://www.garmin.com/xmlschemas/GpxExtensions/v3 http://www8.garmin.com/xmlschemas/GpxExtensionsv3.xsd http://www.garmin.com/xmlschemas/WaypointExtension/v1 http://www8.garmin.com/xmlschemas/WaypointExtensionv1.xsd http://www.garmin.com/xmlschemas/TrackPointExtension/v1 http://www.garmin.com/xmlschemas/TrackPointExtensionv1.xsd"><metadata><link href="http://www.garmin.com"><text>Garmin International</text></link><time>2015-08-19T14:52:53Z</time></metadata><trk><name>Current Track: 19 AUG 2015 10:03</name><extensions><gpxx:TrackExtension><gpxx:DisplayColor>Cyan</gpxx:DisplayColor></gpxx:TrackExtension></extensions><trkseg><trkpt lat="51.9628007803" lon="-1.8727637641"><ele>219.80</ele><time>2015-08-19T09:03:51Z</time></trkpt><trkpt lat="51.9628534187" lon="-1.8727569748"><ele>219.32</ele><time>2015-08-19T09:04:11Z</time></trkpt><trkpt lat="51.9629327115" lon="-1.8727443181"><ele>219.32</ele><time>2015-08-19T09:04:19Z</time></trkpt><trkpt lat="51.9629652333" lon="-1.8727395404"><ele>219.80</ele><time>2015-08-19T09:04:23Z</time></trkpt><trkpt lat="51.9630138483" lon="-1.8726702221"><ele>220.76</ele><time>2015-08-19T09:04:39Z</time></trkpt><trkpt lat="51.9630168658" lon="-1.8726523686"><ele>220.76</ele><time>2015-08-19T09:04:54Z</time></trkpt><trkpt lat="51.9630768802" lon="-1.8726405501"><ele>220.76</ele><time>2015-08-19T09:05:08Z</time></trkpt><trkpt lat="51.9631993398" lon="-1.8726931885"><ele>222.20</ele><time>2015-08-19T09:05:22Z</time></trkpt><trkpt lat="51.9632116612" lon="-1.8727200106"><ele>221.24</ele><time>2015-08-19T09:05:43Z</time></trkpt><trkpt lat="51.9632047042" lon="-1.8727322482"><ele>221.24</ele><time>2015-08-19T09:06:02Z</time></trkpt><trkpt lat="51.9632016867" lon="-1.8726933561"><ele>220.28</ele><time>2015-08-19T09:06:13Z</time></trkpt><trkpt lat="51.9631872699" lon="-1.8726532068"><ele>221.24</ele><time>2015-08-19T09:06:16Z</time></trkpt><trkpt lat="51.9631554186" lon="-1.8725543004"><ele>221.72</ele><time>2015-08-19T09:06:23Z</time></trkpt><trkpt lat="51.9631261658" lon="-1.8724880833"><ele>221.72</ele><time>2015-08-19T09:06:31Z</time></trkpt><trkpt lat="51.9631182868" lon="-1.8724611774"><ele>220.76</ele><time>2015-08-19T09:06:33Z</time></trkpt><trkpt lat="51.9630715996" lon="-1.8723872490"><ele>220.76</ele><time>2015-08-19T09:06:39Z</time></trkpt><trkpt lat="51.9629726093" lon="-1.8721629493"><ele>219.80</ele><time>2015-08-19T09:06:53Z</time></trkpt><trkpt lat="51.9629404228" lon="-1.8721336126"><ele>219.80</ele><time>2015-08-19T09:06:57Z</time></trkpt><trkpt lat="51.9628105871" lon="-1.8719967362"><ele>219.32</ele><time>2015-08-19T09:07:11Z</time></trkpt><trkpt lat="51.9626877084" lon="-1.8718194589"><ele>218.36</ele><time>2015-08-19T09:07:29Z</time></trkpt><trkpt lat="51.9625914842" lon="-1.8716877792"><ele>218.36</ele><time>2015-08-19T09:07:45Z</time></trkpt><trkpt lat="51.9624834415" lon="-1.8715509865"><ele>218.84</ele><time>2015-08-19T09:07:59Z</time></trkpt><trkpt lat="51.9623981137" lon="-1.8714602105"><ele>219.32</ele><time>2015-08-19T09:08:12Z</time></trkpt><trkpt lat="51.9623208325" lon="-1.8713571969"><ele>218.84</ele><time>2015-08-19T09:08:29Z</time></trkpt><trkpt lat="51.9622440543" lon="-1.8712131120"><ele>218.84</ele><time>2015-08-19T09:08:41Z</time></trkpt><trkpt lat="51.9621855486" lon="-1.8711308017"><ele>220.28</ele><time>2015-08-19T09:08:50Z</time></trkpt><trkpt lat="51.9621029869" lon="-1.8709969427"><ele>219.32</ele><time>2015-08-19T09:09:03Z</time></trkpt><trkpt lat="51.9620725606" lon="-1.8709092680"><ele>220.76</ele><time>2015-08-19T09:09:15Z</time></trkpt><trkpt lat="51.9620117918" lon="-1.8707179092"><ele>220.76</ele><time>2015-08-19T09:09:28Z</time></trkpt><trkpt lat="51.9620091934" lon="-1.8707029056"><ele>221.24</ele><time>2015-08-19T09:09:29Z</time></trkpt><trkpt lat="51.9619379472" lon="-1.8705176655"><ele>221.24</ele><time>2015-08-19T09:09:42Z</time></trkpt><trkpt lat="51.9618836325" lon="-1.8703546375"><ele>220.76</ele><time>2015-08-19T09:09:54Z</time></trkpt><trkpt lat="51.9618536253" lon="-1.8702148274"><ele>222.68</ele><time>2015-08-19T09:10:06Z</time></trkpt><trkpt lat="51.9618521165" lon="-1.8701955490"><ele>222.20</ele><time>2015-08-19T09:10:08Z</time></trkpt><trkpt lat="51.9618260488" lon="-1.8700933736"><ele>221.72</ele><time>2015-08-19T09:10:15Z</time></trkpt><trkpt lat="51.9618160743" lon="-1.8699162640"><ele>220.76</ele><time>2015-08-19T09:10:27Z</time></trkpt><trkpt lat="51.9617363624" lon="-1.8696345482"><ele>221.72</ele><time>2015-08-19T09:10:43Z</time></trkpt><trkpt lat="51.9617087021" lon="-1.8693714403"><ele>220.76</ele><time>2015-08-19T09:10:59Z</time></trkpt><trkpt lat="51.9616962131" lon="-1.8692570273"><ele>221.24</ele><time>2015-08-19T09:11:05Z</time></trkpt><trkpt lat="51.9616856519" lon="-1.8692125194"><ele>221.72</ele><time>2015-08-19T09:11:07Z</time></trkpt><trkpt lat="51.9616542198" lon="-1.8690592144"><ele>222.68</ele><time>2015-08-19T09:11:16Z</time></trkpt><trkpt lat="51.9616387133" lon="-1.8689867109"><ele>225.57</ele><time>2015-08-19T09:11:20Z</time></trkpt><trkpt lat="51.9616337679" lon="-1.8689704500"><ele>221.72</ele><time>2015-08-19T09:11:21Z</time></trkpt><trkpt lat="51.9616260566" lon="-1.8689406943"><ele>221.72</ele><time>2015-08-19T09:11:23Z</time></trkpt><trkpt lat="51.9615713228" lon="-1.8688518461"><ele>217.40</ele><time>2015-08-19T09:11:34Z</time></trkpt><trkpt lat="51.9615704007" lon="-1.8688512594"><ele>223.16</ele><time>2015-08-19T09:11:36Z</time></trkpt><trkpt lat="51.9615707360" lon="-1.8688510079"><ele>220.76</ele><time>2015-08-19T09:11:37Z</time></trkpt><trkpt lat="51.9615224563" lon="-1.8688932527"><ele>219.32</ele><time>2015-08-19T09:11:50Z</time></trkpt><trkpt lat="51.9614810497" lon="-1.8688570429"><ele>223.16</ele><time>2015-08-19T09:11:58Z</time></trkpt><trkpt lat="51.9614801276" lon="-1.8688561209"><ele>216.91</ele><time>2015-08-19T09:11:59Z</time></trkpt><trkpt lat="51.9614709076" lon="-1.8688411172"><ele>221.24</ele><time>2015-08-19T09:12:01Z</time></trkpt><trkpt lat="51.9614588376" lon="-1.8688211683"><ele>217.40</ele><time>2015-08-19T09:12:03Z</time></trkpt><trkpt lat="51.9614580832" lon="-1.8688197434"><ele>220.28</ele><time>2015-08-19T09:12:04Z</time></trkpt><trkpt lat="51.9614445884" lon="-1.8687703740"><ele>223.16</ele><time>2015-08-19T09:12:11Z</time></trkpt><trkpt lat="51.9614443369" lon="-1.8687685300"><ele>218.36</ele><time>2015-08-19T09:12:13Z</time></trkpt><trkpt lat="51.9614434149" lon="-1.8687674403"><ele>222.20</ele><time>2015-08-19T09:12:15Z</time></trkpt><trkpt lat="51.9614424091" lon="-1.8687673565"><ele>221.72</ele><time>2015-08-19T09:12:16Z</time></trkpt><trkpt lat="51.9614353683" lon="-1.8687548675"><ele>217.88</ele><time>2015-08-19T09:12:18Z</time></trkpt><trkpt lat="51.9614222925" lon="-1.8687223457"><ele>221.24</ele><time>2015-08-19T09:12:20Z</time></trkpt><trkpt lat="51.9614129048" lon="-1.8686837051"><ele>218.84</ele><time>2015-08-19T09:12:23Z</time></trkpt><trkpt lat="51.9613463525" lon="-1.8685394526"><ele>219.32</ele><time>2015-08-19T09:12:38Z</time></trkpt><trkpt lat="51.9613453466" lon="-1.8685365189"><ele>215.47</ele><time>2015-08-19T09:12:40Z</time></trkpt><trkpt lat="51.9613363780" lon="-1.8685233593"><ele>219.32</ele><time>2015-08-19T09:12:41Z</time></trkpt><trkpt lat="51.9612746872" lon="-1.8684056774"><ele>215.95</ele><time>2015-08-19T09:12:50Z</time></trkpt><trkpt lat="51.9612729270" lon="-1.8684023246"><ele>220.28</ele><time>2015-08-19T09:12:52Z</time></trkpt><trkpt lat="51.9612697419" lon="-1.8683971278"><ele>219.32</ele><time>2015-08-19T09:12:53Z</time></trkpt><trkpt lat="51.9612680655" lon="-1.8683952838"><ele>215.47</ele><time>2015-08-19T09:12:55Z</time></trkpt><trkpt lat="51.9612669758" lon="-1.8683935236"><ele>217.40</ele><time>2015-08-19T09:12:56Z</time></trkpt><trkpt lat="51.9612463564" lon="-1.8683641870"><ele>222.20</ele><time>2015-08-19T09:12:58Z</time></trkpt><trkpt lat="51.9612392318" lon="-1.8683532067"><ele>215.47</ele><time>2015-08-19T09:12:59Z</time></trkpt><trkpt lat="51.9612303469" lon="-1.8683431484"><ele>217.40</ele><time>2015-08-19T09:13:00Z</time></trkpt><trkpt lat="51.9612191152" lon="-1.8683251273"><ele>221.24</ele><time>2015-08-19T09:13:02Z</time></trkpt><trkpt lat="51.9612095598" lon="-1.8683066033"><ele>215.95</ele><time>2015-08-19T09:13:03Z</time></trkpt><trkpt lat="51.9611865934" lon="-1.8682621792"><ele>220.28</ele><time>2015-08-19T09:13:07Z</time></trkpt><trkpt lat="51.9611735176" lon="-1.8682449963"><ele>214.99</ele><time>2015-08-19T09:13:08Z</time></trkpt><trkpt lat="51.9611718412" lon="-1.8682418112"><ele>218.84</ele><time>2015-08-19T09:13:10Z</time></trkpt><trkpt lat="51.9611657225" lon="-1.8682380393"><ele>223.16</ele><time>2015-08-19T09:13:11Z</time></trkpt><trkpt lat="51.9611572567" lon="-1.8682325073"><ele>215.47</ele><time>2015-08-19T09:13:12Z</time></trkpt><trkpt lat="51.9611423369" lon="-1.8682217784"><ele>219.80</ele><time>2015-08-19T09:13:14Z</time></trkpt><trkpt lat="51.9611052889" lon="-1.8682042602"><ele>215.95</ele><time>2015-08-19T09:13:16Z</time></trkpt><trkpt lat="51.9610757846" lon="-1.8681857362"><ele>219.80</ele><time>2015-08-19T09:13:18Z</time></trkpt><trkpt lat="51.9610568415" lon="-1.8681890052"><ele>215.47</ele><time>2015-08-19T09:13:20Z</time></trkpt><trkpt lat="51.9610477891" lon="-1.8681893405"><ele>218.84</ele><time>2015-08-19T09:13:21Z</time></trkpt><trkpt lat="51.9610351324" lon="-1.8681903463"><ele>219.80</ele><time>2015-08-19T09:13:23Z</time></trkpt><trkpt lat="51.9610310253" lon="-1.8681919388"><ele>219.80</ele><time>2015-08-19T09:13:27Z</time></trkpt><trkpt lat="51.9610064663" lon="-1.8681637757"><ele>220.28</ele><time>2015-08-19T09:13:39Z</time></trkpt><trkpt lat="51.9609944802" lon="-1.8681816291"><ele>215.95</ele><time>2015-08-19T09:13:52Z</time></trkpt><trkpt lat="51.9609355554" lon="-1.8681993987"><ele>222.68</ele><time>2015-08-19T09:13:55Z</time></trkpt><trkpt lat="51.9609012734" lon="-1.8682084512"><ele>216.43</ele><time>2015-08-19T09:13:57Z</time></trkpt><trkpt lat="51.9608167000" lon="-1.8682077806"><ele>221.24</ele><time>2015-08-19T09:14:02Z</time></trkpt><trkpt lat="51.9608066417" lon="-1.8682099599"><ele>216.43</ele><time>2015-08-19T09:14:03Z</time></trkpt><trkpt lat="51.9607944880" lon="-1.8682116363"><ele>219.80</ele><time>2015-08-19T09:14:04Z</time></trkpt><trkpt lat="51.9607835077" lon="-1.8682167493"><ele>219.80</ele><time>2015-08-19T09:14:05Z</time></trkpt><trkpt lat="51.9607505668" lon="-1.8682298250"><ele>217.40</ele><time>2015-08-19T09:14:08Z</time></trkpt><trkpt lat="51.9607269298" lon="-1.8682286516"><ele>218.84</ele><time>2015-08-19T09:14:10Z</time></trkpt><trkpt lat="51.9607058074" lon="-1.8682351056"><ele>222.20</ele><time>2015-08-19T09:14:12Z</time></trkpt><trkpt lat="51.9606689271" lon="-1.8682562280"><ele>220.28</ele><time>2015-08-19T09:14:16Z</time></trkpt><trkpt lat="51.9605657458" lon="-1.8683361076"><ele>219.32</ele><time>2015-08-19T09:14:29Z</time></trkpt><trkpt lat="51.9605328888" lon="-1.8683668692"><ele>219.32</ele><time>2015-08-19T09:14:34Z</time></trkpt><trkpt lat="51.9605023786" lon="-1.8683957867"><ele>218.36</ele><time>2015-08-19T09:14:38Z</time></trkpt><trkpt lat="51.9604797475" lon="-1.8684272189"><ele>221.24</ele><time>2015-08-19T09:14:41Z</time></trkpt><trkpt lat="51.9604596309" lon="-1.8684309069"><ele>220.28</ele><time>2015-08-19T09:14:43Z</time></trkpt><trkpt lat="51.9604084175" lon="-1.8684304878"><ele>219.80</ele><time>2015-08-19T09:14:48Z</time></trkpt><trkpt lat="51.9603810925" lon="-1.8684372772"><ele>220.28</ele><time>2015-08-19T09:14:51Z</time></trkpt><trkpt lat="51.9603350759" lon="-1.8684680387"><ele>219.32</ele><time>2015-08-19T09:14:56Z</time></trkpt><trkpt lat="51.9602417853" lon="-1.8685193360"><ele>218.36</ele><time>2015-08-19T09:15:06Z</time></trkpt><trkpt lat="51.9602257758" lon="-1.8685365189"><ele>221.72</ele><time>2015-08-19T09:15:08Z</time></trkpt><trkpt lat="51.9602174778" lon="-1.8685443979"><ele>218.36</ele><time>2015-08-19T09:15:09Z</time></trkpt><trkpt lat="51.9602081738" lon="-1.8685512710"><ele>218.36</ele><time>2015-08-19T09:15:10Z</time></trkpt><trkpt lat="51.9601795916" lon="-1.8685734831"><ele>221.24</ele><time>2015-08-19T09:15:13Z</time></trkpt><trkpt lat="51.9601718802" lon="-1.8685792666"><ele>220.28</ele><time>2015-08-19T09:15:14Z</time></trkpt><trkpt lat="51.9601529371" lon="-1.8685796857"><ele>219.32</ele><time>2015-08-19T09:15:16Z</time></trkpt><trkpt lat="51.9601414539" lon="-1.8685919233"><ele>221.24</ele><time>2015-08-19T09:15:18Z</time></trkpt><trkpt lat="51.9601354189" lon="-1.8685987126"><ele>217.40</ele><time>2015-08-19T09:15:19Z</time></trkpt><trkpt lat="51.9601265341" lon="-1.8686049990"><ele>218.36</ele><time>2015-08-19T09:15:20Z</time></trkpt><trkpt lat="51.9601053279" lon="-1.8686200026"><ele>221.72</ele><time>2015-08-19T09:15:22Z</time></trkpt><trkpt lat="51.9600725546" lon="-1.8686531112"><ele>218.36</ele><time>2015-08-19T09:15:26Z</time></trkpt><trkpt lat="51.9600582216" lon="-1.8686636724"><ele>222.68</ele><time>2015-08-19T09:15:28Z</time></trkpt><trkpt lat="51.9600511808" lon="-1.8686687015"><ele>218.84</ele><time>2015-08-19T09:15:29Z</time></trkpt><trkpt lat="51.9600431342" lon="-1.8686707970"><ele>215.95</ele><time>2015-08-19T09:15:30Z</time></trkpt><trkpt lat="51.9600333273" lon="-1.8686744850"><ele>219.32</ele><time>2015-08-19T09:15:31Z</time></trkpt><trkpt lat="51.9599654339" lon="-1.8687119521"><ele>219.80</ele><time>2015-08-19T09:15:38Z</time></trkpt><trkpt lat="51.9599554595" lon="-1.8687312305"><ele>218.84</ele><time>2015-08-19T09:15:40Z</time></trkpt><trkpt lat="51.9599366840" lon="-1.8687442224"><ele>220.28</ele><time>2015-08-19T09:15:42Z</time></trkpt><trkpt lat="51.9599259552" lon="-1.8687469885"><ele>216.91</ele><time>2015-08-19T09:15:43Z</time></trkpt><trkpt lat="51.9599185791" lon="-1.8687538616"><ele>217.40</ele><time>2015-08-19T09:15:44Z</time></trkpt><trkpt lat="51.9599088561" lon="-1.8687631655"><ele>220.76</ele><time>2015-08-19T09:15:45Z</time></trkpt><trkpt lat="51.9598993845" lon="-1.8687702902"><ele>219.80</ele><time>2015-08-19T09:15:46Z</time></trkpt><trkpt lat="51.9598692935" lon="-1.8687960226"><ele>217.40</ele><time>2015-08-19T09:15:49Z</time></trkpt><trkpt lat="51.9598371070" lon="-1.8688267842"><ele>221.24</ele><time>2015-08-19T09:15:53Z</time></trkpt><trkpt lat="51.9598287251" lon="-1.8688365910"><ele>218.36</ele><time>2015-08-19T09:15:54Z</time></trkpt><trkpt lat="51.9597917609" lon="-1.8688831944"><ele>217.40</ele><time>2015-08-19T09:15:59Z</time></trkpt><trkpt lat="51.9597744104" lon="-1.8688950967"><ele>219.32</ele><time>2015-08-19T09:16:01Z</time></trkpt><trkpt lat="51.9596888311" lon="-1.8689942546"><ele>214.99</ele><time>2015-08-19T09:16:12Z</time></trkpt><trkpt lat="51.9596718159" lon="-1.8690131977"><ele>218.36</ele><time>2015-08-19T09:16:14Z</time></trkpt><trkpt lat="51.9595951214" lon="-1.8690919876"><ele>216.43</ele><time>2015-08-19T09:16:23Z</time></trkpt><trkpt lat="51.9594688900" lon="-1.8692132737"><ele>217.88</ele><time>2015-08-19T09:16:38Z</time></trkpt><trkpt lat="51.9594471809" lon="-1.8692210689"><ele>217.40</ele><time>2015-08-19T09:16:40Z</time></trkpt><trkpt lat="51.9592823088" lon="-1.8693552632"><ele>217.88</ele><time>2015-08-19T09:16:58Z</time></trkpt><trkpt lat="51.9591771998" lon="-1.8694437761"><ele>217.40</ele><time>2015-08-19T09:17:11Z</time></trkpt><trkpt lat="51.9591150060" lon="-1.8694636412"><ele>218.36</ele><time>2015-08-19T09:17:23Z</time></trkpt><trkpt lat="51.9591145031" lon="-1.8694641441"><ele>217.40</ele><time>2015-08-19T09:17:24Z</time></trkpt><trkpt lat="51.9590769522" lon="-1.8694250844"><ele>216.91</ele><time>2015-08-19T09:17:28Z</time></trkpt><trkpt lat="51.9590601884" lon="-1.8693970051"><ele>217.40</ele><time>2015-08-19T09:17:30Z</time></trkpt><trkpt lat="51.9589953125" lon="-1.8693368230"><ele>216.91</ele><time>2015-08-19T09:17:36Z</time></trkpt><trkpt lat="51.9588490482" lon="-1.8692698516"><ele>215.47</ele><time>2015-08-19T09:17:50Z</time></trkpt><trkpt lat="51.9588216394" lon="-1.8692709412"><ele>216.91</ele><time>2015-08-19T09:17:53Z</time></trkpt><trkpt lat="51.9587925542" lon="-1.8692620564"><ele>216.91</ele><time>2015-08-19T09:17:56Z</time></trkpt><trkpt lat="51.9587721024" lon="-1.8692543451"><ele>216.43</ele><time>2015-08-19T09:17:58Z</time></trkpt><trkpt lat="51.9587349705" lon="-1.8692566920"><ele>216.91</ele><time>2015-08-19T09:18:02Z</time></trkpt><trkpt lat="51.9585871976" lon="-1.8692944106"><ele>216.91</ele><time>2015-08-19T09:18:16Z</time></trkpt><trkpt lat="51.9585325476" lon="-1.8693184666"><ele>217.40</ele><time>2015-08-19T09:18:22Z</time></trkpt><trkpt lat="51.9584833458" lon="-1.8693120964"><ele>216.91</ele><time>2015-08-19T09:18:27Z</time></trkpt><trkpt lat="51.9583835173" lon="-1.8693196401"><ele>217.88</ele><time>2015-08-19T09:18:37Z</time></trkpt><trkpt lat="51.9582528435" lon="-1.8693364039"><ele>216.91</ele><time>2015-08-19T09:18:50Z</time></trkpt><trkpt lat="51.9581940025" lon="-1.8693481386"><ele>215.95</ele><time>2015-08-19T09:18:56Z</time></trkpt><trkpt lat="51.9581696950" lon="-1.8693428580"><ele>216.91</ele><time>2015-08-19T09:18:58Z</time></trkpt><trkpt lat="51.9580516778" lon="-1.8693647347"><ele>216.43</ele><time>2015-08-19T09:19:08Z</time></trkpt><trkpt lat="51.9579236023" lon="-1.8693591189"><ele>215.95</ele><time>2015-08-19T09:19:20Z</time></trkpt><trkpt lat="51.9579038210" lon="-1.8693582807"><ele>216.43</ele><time>2015-08-19T09:19:22Z</time></trkpt><trkpt lat="51.9577949401" lon="-1.8693814985"><ele>215.47</ele><time>2015-08-19T09:19:33Z</time></trkpt><trkpt lat="51.9577254541" lon="-1.8693798222"><ele>214.99</ele><time>2015-08-19T09:19:39Z</time></trkpt><trkpt lat="51.9576698821" lon="-1.8693830911"><ele>215.47</ele><time>2015-08-19T09:19:44Z</time></trkpt><trkpt lat="51.9576478377" lon="-1.8693846837"><ele>215.47</ele><time>2015-08-19T09:19:46Z</time></trkpt><trkpt lat="51.9575507753" lon="-1.8693789002"><ele>214.99</ele><time>2015-08-19T09:19:56Z</time></trkpt><trkpt lat="51.9575278088" lon="-1.8693784811"><ele>215.47</ele><time>2015-08-19T09:19:58Z</time></trkpt><trkpt lat="51.9573805388" lon="-1.8693853542"><ele>214.51</ele><time>2015-08-19T09:20:12Z</time></trkpt><trkpt lat="51.9572864939" lon="-1.8693779781"><ele>214.99</ele><time>2015-08-19T09:20:21Z</time></trkpt><trkpt lat="51.9571838155" lon="-1.8693858571"><ele>214.51</ele><time>2015-08-19T09:20:36Z</time></trkpt><trkpt lat="51.9571712427" lon="-1.8693847675"><ele>214.99</ele><time>2015-08-19T09:20:40Z</time></trkpt><trkpt lat="51.9571508747" lon="-1.8694138527"><ele>214.51</ele><time>2015-08-19T09:20:50Z</time></trkpt><trkpt lat="51.9570866693" lon="-1.8693773914"><ele>214.51</ele><time>2015-08-19T09:20:58Z</time></trkpt><trkpt lat="51.9569663052" lon="-1.8692983501"><ele>214.51</ele><time>2015-08-19T09:21:13Z</time></trkpt><trkpt lat="51.9569383934" lon="-1.8692884594"><ele>214.51</ele><time>2015-08-19T09:21:17Z</time></trkpt><trkpt lat="51.9568149280" lon="-1.8692309596"><ele>214.51</ele><time>2015-08-19T09:21:33Z</time></trkpt><trkpt lat="51.9567762036" lon="-1.8692132737"><ele>214.03</ele><time>2015-08-19T09:21:37Z</time></trkpt><trkpt lat="51.9567229785" lon="-1.8691737950"><ele>214.03</ele><time>2015-08-19T09:21:43Z</time></trkpt><trkpt lat="51.9567023590" lon="-1.8691577855"><ele>214.03</ele><time>2015-08-19T09:21:46Z</time></trkpt><trkpt lat="51.9566625450" lon="-1.8691504933"><ele>214.51</ele><time>2015-08-19T09:22:00Z</time></trkpt><trkpt lat="51.9566664845" lon="-1.8691538461"><ele>213.55</ele><time>2015-08-19T09:22:07Z</time></trkpt><trkpt lat="51.9566031173" lon="-1.8691147864"><ele>213.55</ele><time>2015-08-19T09:22:12Z</time></trkpt><trkpt lat="51.9565550052" lon="-1.8690634891"><ele>214.03</ele><time>2015-08-19T09:22:17Z</time></trkpt><trkpt lat="51.9565203879" lon="-1.8690437078"><ele>214.03</ele><time>2015-08-19T09:22:20Z</time></trkpt><trkpt lat="51.9564143568" lon="-1.8689559493"><ele>213.07</ele><time>2015-08-19T09:22:31Z</time></trkpt><trkpt lat="51.9563654065" lon="-1.8689208291"><ele>213.07</ele><time>2015-08-19T09:22:36Z</time></trkpt><trkpt lat="51.9563322142" lon="-1.8689003773"><ele>213.55</ele><time>2015-08-19T09:22:40Z</time></trkpt><trkpt lat="51.9562673382" lon="-1.8688536063"><ele>212.59</ele><time>2015-08-19T09:22:47Z</time></trkpt><trkpt lat="51.9562104251" lon="-1.8688102718"><ele>212.11</ele><time>2015-08-19T09:22:53Z</time></trkpt><trkpt lat="51.9561535958" lon="-1.8687694520"><ele>213.07</ele><time>2015-08-19T09:23:00Z</time></trkpt><trkpt lat="51.9561281987" lon="-1.8687512632"><ele>212.59</ele><time>2015-08-19T09:23:02Z</time></trkpt><trkpt lat="51.9560143724" lon="-1.8686384428"><ele>211.63</ele><time>2015-08-19T09:23:16Z</time></trkpt><trkpt lat="51.9559137896" lon="-1.8685288075"><ele>211.15</ele><time>2015-08-19T09:23:27Z</time></trkpt><trkpt lat="51.9558754005" lon="-1.8684762530"><ele>210.19</ele><time>2015-08-19T09:23:31Z</time></trkpt><trkpt lat="51.9557511806" lon="-1.8683584034"><ele>209.22</ele><time>2015-08-19T09:23:46Z</time></trkpt><trkpt lat="51.9556533638" lon="-1.8683009874"><ele>208.74</ele><time>2015-08-19T09:23:57Z</time></trkpt><trkpt lat="51.9555902481" lon="-1.8682519533"><ele>209.22</ele><time>2015-08-19T09:24:06Z</time></trkpt><trkpt lat="51.9555345085" lon="-1.8682342675"><ele>209.70</ele><time>2015-08-19T09:24:19Z</time></trkpt><trkpt lat="51.9555282220" lon="-1.8682437390"><ele>209.70</ele><time>2015-08-19T09:24:20Z</time></trkpt><trkpt lat="51.9555079378" lon="-1.8682835530"><ele>210.19</ele><time>2015-08-19T09:24:23Z</time></trkpt><trkpt lat="51.9554723147" lon="-1.8683314975"><ele>209.22</ele><time>2015-08-19T09:24:28Z</time></trkpt><trkpt lat="51.9554521143" lon="-1.8683683779"><ele>209.70</ele><time>2015-08-19T09:24:31Z</time></trkpt><trkpt lat="51.9553561416" lon="-1.8685709685"><ele>209.22</ele><time>2015-08-19T09:24:47Z</time></trkpt><trkpt lat="51.9553309958" lon="-1.8686144706"><ele>208.74</ele><time>2015-08-19T09:24:53Z</time></trkpt><trkpt lat="51.9552978873" lon="-1.8686784245"><ele>208.74</ele><time>2015-08-19T09:24:58Z</time></trkpt><trkpt lat="51.9552392978" lon="-1.8687609024"><ele>208.26</ele><time>2015-08-19T09:25:07Z</time></trkpt><trkpt lat="51.9552154094" lon="-1.8687814381"><ele>208.74</ele><time>2015-08-19T09:25:10Z</time></trkpt><trkpt lat="51.9551746733" lon="-1.8687919155"><ele>209.22</ele><time>2015-08-19T09:25:15Z</time></trkpt><trkpt lat="51.9551269803" lon="-1.8688175641"><ele>208.26</ele><time>2015-08-19T09:25:20Z</time></trkpt><trkpt lat="51.9550372940" lon="-1.8688375968"><ele>208.74</ele><time>2015-08-19T09:25:34Z</time></trkpt><trkpt lat="51.9550080411" lon="-1.8688623235"><ele>209.22</ele><time>2015-08-19T09:25:41Z</time></trkpt><trkpt lat="51.9548652135" lon="-1.8688954320"><ele>208.74</ele><time>2015-08-19T09:25:57Z</time></trkpt><trkpt lat="51.9548005052" lon="-1.8689245172"><ele>208.74</ele><time>2015-08-19T09:26:04Z</time></trkpt><trkpt lat="51.9547150936" lon="-1.8689499144"><ele>209.22</ele><time>2015-08-19T09:26:15Z</time></trkpt><trkpt lat="51.9546489604" lon="-1.8689644150"><ele>208.74</ele><time>2015-08-19T09:26:22Z</time></trkpt><trkpt lat="51.9545190409" lon="-1.8689976074"><ele>208.74</ele><time>2015-08-19T09:26:35Z</time></trkpt><trkpt lat="51.9544007722" lon="-1.8690046482"><ele>208.26</ele><time>2015-08-19T09:26:47Z</time></trkpt><trkpt lat="51.9543535821" lon="-1.8690061569"><ele>208.74</ele><time>2015-08-19T09:26:52Z</time></trkpt><trkpt lat="51.9542426895" lon="-1.8690157123"><ele>208.74</ele><time>2015-08-19T09:27:05Z</time></trkpt><trkpt lat="51.9542211480" lon="-1.8690201547"><ele>208.26</ele><time>2015-08-19T09:27:07Z</time></trkpt><trkpt lat="51.9540627301" lon="-1.8690304644"><ele>208.74</ele><time>2015-08-19T09:27:21Z</time></trkpt><trkpt lat="51.9540234189" lon="-1.8690321408"><ele>208.74</ele><time>2015-08-19T09:27:25Z</time></trkpt><trkpt lat="51.9538898952" lon="-1.8690385111"><ele>208.26</ele><time>2015-08-19T09:27:37Z</time></trkpt><trkpt lat="51.9537762366" lon="-1.8690435402"><ele>208.74</ele><time>2015-08-19T09:27:47Z</time></trkpt><trkpt lat="51.9536431320" lon="-1.8690584600"><ele>208.74</ele><time>2015-08-19T09:28:00Z</time></trkpt><trkpt lat="51.9535570499" lon="-1.8690589629"><ele>208.74</ele><time>2015-08-19T09:28:10Z</time></trkpt><trkpt lat="51.9534069300" lon="-1.8690842763"><ele>208.26</ele><time>2015-08-19T09:28:25Z</time></trkpt><trkpt lat="51.9532815367" lon="-1.8690809235"><ele>208.26</ele><time>2015-08-19T09:28:37Z</time></trkpt><trkpt lat="51.9532480929" lon="-1.8691021297"><ele>208.26</ele><time>2015-08-19T09:28:41Z</time></trkpt><trkpt lat="51.9531078637" lon="-1.8691242579"><ele>208.26</ele><time>2015-08-19T09:28:55Z</time></trkpt><trkpt lat="51.9529978093" lon="-1.8691338133"><ele>207.78</ele><time>2015-08-19T09:29:06Z</time></trkpt><trkpt lat="51.9528789539" lon="-1.8691387586"><ele>208.74</ele><time>2015-08-19T09:29:19Z</time></trkpt><trkpt lat="51.9528175984" lon="-1.8691268563"><ele>207.78</ele><time>2015-08-19T09:29:25Z</time></trkpt><trkpt lat="51.9527962245" lon="-1.8691255152"><ele>207.78</ele><time>2015-08-19T09:29:27Z</time></trkpt><trkpt lat="51.9526646286" lon="-1.8691256829"><ele>207.78</ele><time>2015-08-19T09:29:41Z</time></trkpt><trkpt lat="51.9526248146" lon="-1.8691389263"><ele>208.26</ele><time>2015-08-19T09:29:46Z</time></trkpt><trkpt lat="51.9525201246" lon="-1.8691297062"><ele>207.78</ele><time>2015-08-19T09:30:00Z</time></trkpt><trkpt lat="51.9525140896" lon="-1.8691452965"><ele>208.26</ele><time>2015-08-19T09:30:12Z</time></trkpt><trkpt lat="51.9524404127" lon="-1.8691823445"><ele>207.30</ele><time>2015-08-19T09:30:27Z</time></trkpt><trkpt lat="51.9523861818" lon="-1.8691666704"><ele>208.26</ele><time>2015-08-19T09:30:33Z</time></trkpt><trkpt lat="51.9523211382" lon="-1.8691599648"><ele>207.78</ele><time>2015-08-19T09:30:40Z</time></trkpt><trkpt lat="51.9522420131" lon="-1.8691684306"><ele>207.30</ele><time>2015-08-19T09:30:49Z</time></trkpt><trkpt lat="51.9521980919" lon="-1.8691562768"><ele>207.30</ele><time>2015-08-19T09:30:54Z</time></trkpt><trkpt lat="51.9521571044" lon="-1.8691535108"><ele>207.30</ele><time>2015-08-19T09:30:58Z</time></trkpt><trkpt lat="51.9520715252" lon="-1.8691259343"><ele>207.30</ele><time>2015-08-19T09:31:08Z</time></trkpt><trkpt lat="51.9520290289" lon="-1.8691221625"><ele>207.78</ele><time>2015-08-19T09:31:13Z</time></trkpt><trkpt lat="51.9519862812" lon="-1.8691107631"><ele>206.82</ele><time>2015-08-19T09:31:17Z</time></trkpt><trkpt lat="51.9518686831" lon="-1.8690328952"><ele>206.82</ele><time>2015-08-19T09:31:30Z</time></trkpt><trkpt lat="51.9517822657" lon="-1.8689777423"><ele>207.30</ele><time>2015-08-19T09:31:43Z</time></trkpt><trkpt lat="51.9516652543" lon="-1.8688958511"><ele>207.30</ele><time>2015-08-19T09:31:57Z</time></trkpt><trkpt lat="51.9516025577" lon="-1.8688601442"><ele>206.82</ele><time>2015-08-19T09:32:05Z</time></trkpt><trkpt lat="51.9514915813" lon="-1.8687306438"><ele>206.34</ele><time>2015-08-19T09:32:19Z</time></trkpt><trkpt lat="51.9514561258" lon="-1.8687214237"><ele>206.34</ele><time>2015-08-19T09:32:33Z</time></trkpt><trkpt lat="51.9513956923" lon="-1.8686424661"><ele>206.82</ele><time>2015-08-19T09:32:48Z</time></trkpt><trkpt lat="51.9513554592" lon="-1.8685992993"><ele>206.82</ele><time>2015-08-19T09:32:55Z</time></trkpt><trkpt lat="51.9512801897" lon="-1.8684521131"><ele>205.38</ele><time>2015-08-19T09:33:10Z</time></trkpt><trkpt lat="51.9511734042" lon="-1.8682932761"><ele>204.42</ele><time>2015-08-19T09:33:26Z</time></trkpt><trkpt lat="51.9510646071" lon="-1.8684057612"><ele>203.94</ele><time>2015-08-19T09:33:42Z</time></trkpt><trkpt lat="51.9509781897" lon="-1.8684929330"><ele>202.98</ele><time>2015-08-19T09:33:58Z</time></trkpt><trkpt lat="51.9509722386" lon="-1.8685017340"><ele>203.46</ele><time>2015-08-19T09:33:59Z</time></trkpt><trkpt lat="51.9508549757" lon="-1.8686288036"><ele>201.53</ele><time>2015-08-19T09:34:16Z</time></trkpt><trkpt lat="51.9507715758" lon="-1.8687389418"><ele>199.13</ele><time>2015-08-19T09:34:33Z</time></trkpt><trkpt lat="51.9506691489" lon="-1.8689323124"><ele>197.69</ele><time>2015-08-19T09:34:49Z</time></trkpt><trkpt lat="51.9505511317" lon="-1.8690618966"><ele>196.73</ele><time>2015-08-19T09:35:05Z</time></trkpt><trkpt lat="51.9504777063" lon="-1.8691256829"><ele>197.21</ele><time>2015-08-19T09:35:27Z</time></trkpt><trkpt lat="51.9504471123" lon="-1.8691305444"><ele>196.25</ele><time>2015-08-19T09:35:47Z</time></trkpt><trkpt lat="51.9503801409" lon="-1.8691570312"><ele>196.73</ele><time>2015-08-19T09:36:09Z</time></trkpt><trkpt lat="51.9501479622" lon="-1.8691345677"><ele>196.73</ele><time>2015-08-19T09:36:23Z</time></trkpt><trkpt lat="51.9500292744" lon="-1.8689859565"><ele>198.17</ele><time>2015-08-19T09:36:37Z</time></trkpt><trkpt lat="51.9498959184" lon="-1.8687813543"><ele>200.09</ele><time>2015-08-19T09:36:57Z</time></trkpt><trkpt lat="51.9497475587" lon="-1.8687053304"><ele>201.53</ele><time>2015-08-19T09:37:15Z</time></trkpt><trkpt lat="51.9496349897" lon="-1.8687976990"><ele>202.49</ele><time>2015-08-19T09:37:33Z</time></trkpt><trkpt lat="51.9494946767" lon="-1.8688556179"><ele>203.94</ele><time>2015-08-19T09:37:47Z</time></trkpt><trkpt lat="51.9494215865" lon="-1.8690426182"><ele>205.38</ele><time>2015-08-19T09:38:05Z</time></trkpt><trkpt lat="51.9493054971" lon="-1.8691928219"><ele>205.86</ele><time>2015-08-19T09:38:24Z</time></trkpt><trkpt lat="51.9492104463" lon="-1.8693483900"><ele>206.34</ele><time>2015-08-19T09:38:42Z</time></trkpt><trkpt lat="51.9490769226" lon="-1.8695559260"><ele>207.30</ele><time>2015-08-19T09:38:59Z</time></trkpt><trkpt lat="51.9489751663" lon="-1.8696819898"><ele>207.30</ele><time>2015-08-19T09:39:13Z</time></trkpt><trkpt lat="51.9489120506" lon="-1.8696843367"><ele>207.78</ele><time>2015-08-19T09:39:29Z</time></trkpt><trkpt lat="51.9488891680" lon="-1.8697107397"><ele>208.26</ele><time>2015-08-19T09:39:32Z</time></trkpt><trkpt lat="51.9488241244" lon="-1.8697643839"><ele>207.30</ele><time>2015-08-19T09:39:45Z</time></trkpt><trkpt lat="51.9487175066" lon="-1.8698551599"><ele>207.78</ele><time>2015-08-19T09:39:58Z</time></trkpt><trkpt lat="51.9486658741" lon="-1.8698912859"><ele>208.26</ele><time>2015-08-19T09:40:04Z</time></trkpt><trkpt lat="51.9485027622" lon="-1.8700352032"><ele>208.74</ele><time>2015-08-19T09:40:21Z</time></trkpt><trkpt lat="51.9484476931" lon="-1.8701044377"><ele>208.74</ele><time>2015-08-19T09:40:37Z</time></trkpt><trkpt lat="51.9483067095" lon="-1.8702199403"><ele>208.74</ele><time>2015-08-19T09:40:54Z</time></trkpt><trkpt lat="51.9481389876" lon="-1.8704299070"><ele>207.78</ele><time>2015-08-19T09:41:09Z</time></trkpt><trkpt lat="51.9481290132" lon="-1.8704534601"><ele>208.74</ele><time>2015-08-19T09:41:10Z</time></trkpt><trkpt lat="51.9480324537" lon="-1.8706235290"><ele>208.26</ele><time>2015-08-19T09:41:24Z</time></trkpt><trkpt lat="51.9480313640" lon="-1.8706174940"><ele>208.74</ele><time>2015-08-19T09:41:51Z</time></trkpt><trkpt lat="51.9479835872" lon="-1.8706085254"><ele>208.74</ele><time>2015-08-19T09:42:08Z</time></trkpt><trkpt lat="51.9479622971" lon="-1.8706102856"><ele>208.74</ele><time>2015-08-19T09:42:24Z</time></trkpt><trkpt lat="51.9479290210" lon="-1.8706330005"><ele>208.26</ele><time>2015-08-19T09:42:47Z</time></trkpt><trkpt lat="51.9479184598" lon="-1.8706263788"><ele>208.26</ele><time>2015-08-19T09:43:06Z</time></trkpt><trkpt lat="51.9479212258" lon="-1.8706371076"><ele>209.22</ele><time>2015-08-19T09:43:37Z</time></trkpt><trkpt lat="51.9479279313" lon="-1.8706512731"><ele>207.78</ele><time>2015-08-19T09:44:11Z</time></trkpt><trkpt lat="51.9479798991" lon="-1.8706529494"><ele>208.74</ele><time>2015-08-19T09:44:23Z</time></trkpt><trkpt lat="51.9480060507" lon="-1.8707348406"><ele>209.70</ele><time>2015-08-19T09:44:30Z</time></trkpt><trkpt lat="51.9479852635" lon="-1.8707930110"><ele>209.70</ele><time>2015-08-19T09:44:34Z</time></trkpt><trkpt lat="51.9479336310" lon="-1.8709603138"><ele>210.19</ele><time>2015-08-19T09:44:48Z</time></trkpt><trkpt lat="51.9478791486" lon="-1.8712162971"><ele>211.15</ele><time>2015-08-19T09:45:04Z</time></trkpt><trkpt lat="51.9478388317" lon="-1.8714038003"><ele>212.59</ele><time>2015-08-19T09:45:19Z</time></trkpt><trkpt lat="51.9477931503" lon="-1.8716393318"><ele>213.55</ele><time>2015-08-19T09:45:35Z</time></trkpt><trkpt lat="51.9477303699" lon="-1.8719027750"><ele>214.99</ele><time>2015-08-19T09:45:54Z</time></trkpt><trkpt lat="51.9476943277" lon="-1.8721617758"><ele>216.43</ele><time>2015-08-19T09:46:12Z</time></trkpt><trkpt lat="51.9476414379" lon="-1.8724336848"><ele>217.88</ele><time>2015-08-19T09:46:30Z</time></trkpt><trkpt lat="51.9476188067" lon="-1.8725416437"><ele>218.84</ele><time>2015-08-19T09:46:36Z</time></trkpt><trkpt lat="51.9475559425" lon="-1.8727646023"><ele>219.32</ele><time>2015-08-19T09:46:50Z</time></trkpt><trkpt lat="51.9474890549" lon="-1.8729972839"><ele>221.72</ele><time>2015-08-19T09:47:07Z</time></trkpt><trkpt lat="51.9473820180" lon="-1.8733320571"><ele>223.16</ele><time>2015-08-19T09:47:27Z</time></trkpt><trkpt lat="51.9473289605" lon="-1.8735356536"><ele>226.53</ele><time>2015-08-19T09:47:42Z</time></trkpt><trkpt lat="51.9472491648" lon="-1.8737837579"><ele>227.97</ele><time>2015-08-19T09:47:58Z</time></trkpt><trkpt lat="51.9471485820" lon="-1.8741357140"><ele>230.37</ele><time>2015-08-19T09:48:18Z</time></trkpt><trkpt lat="51.9470750727" lon="-1.8743395619"><ele>233.74</ele><time>2015-08-19T09:48:31Z</time></trkpt><trkpt lat="51.9470588956" lon="-1.8743667193"><ele>233.74</ele><time>2015-08-19T09:48:33Z</time></trkpt><trkpt lat="51.9469777588" lon="-1.8745880015"><ele>234.22</ele><time>2015-08-19T09:48:49Z</time></trkpt><trkpt lat="51.9469086081" lon="-1.8747879937"><ele>238.06</ele><time>2015-08-19T09:49:01Z</time></trkpt><trkpt lat="51.9468688779" lon="-1.8748820387"><ele>237.58</ele><time>2015-08-19T09:49:09Z</time></trkpt><trkpt lat="51.9468195084" lon="-1.8750785105"><ele>239.51</ele><time>2015-08-19T09:49:21Z</time></trkpt><trkpt lat="51.9468130544" lon="-1.8753624056"><ele>242.87</ele><time>2015-08-19T09:49:36Z</time></trkpt><trkpt lat="51.9467460830" lon="-1.8756671716"><ele>244.79</ele><time>2015-08-19T09:49:52Z</time></trkpt><trkpt lat="51.9467459153" lon="-1.8756910600"><ele>246.23</ele><time>2015-08-19T09:49:53Z</time></trkpt><trkpt lat="51.9467144832" lon="-1.8757648207"><ele>246.23</ele><time>2015-08-19T09:49:58Z</time></trkpt><trkpt lat="51.9466524571" lon="-1.8759045471"><ele>246.72</ele><time>2015-08-19T09:50:05Z</time></trkpt><trkpt lat="51.9466261379" lon="-1.8759871926"><ele>248.16</ele><time>2015-08-19T09:50:10Z</time></trkpt><trkpt lat="51.9465586636" lon="-1.8763052020"><ele>249.60</ele><time>2015-08-19T09:50:28Z</time></trkpt><trkpt lat="51.9464822207" lon="-1.8765919469"><ele>251.04</ele><time>2015-08-19T09:50:44Z</time></trkpt><trkpt lat="51.9463938754" lon="-1.8767766841"><ele>253.44</ele><time>2015-08-19T09:50:58Z</time></trkpt><trkpt lat="51.9463362079" lon="-1.8770143948"><ele>254.41</ele><time>2015-08-19T09:51:15Z</time></trkpt><trkpt lat="51.9463179354" lon="-1.8770433962"><ele>254.89</ele><time>2015-08-19T09:51:17Z</time></trkpt><trkpt lat="51.9462206215" lon="-1.8772207573"><ele>254.41</ele><time>2015-08-19T09:51:34Z</time></trkpt><trkpt lat="51.9461975712" lon="-1.8772262055"><ele>255.37</ele><time>2015-08-19T09:51:51Z</time></trkpt><trkpt lat="51.9461399037" lon="-1.8771589827"><ele>254.89</ele><time>2015-08-19T09:52:08Z</time></trkpt><trkpt lat="51.9458956551" lon="-1.8770742416"><ele>254.89</ele><time>2015-08-19T09:52:25Z</time></trkpt><trkpt lat="51.9457600359" lon="-1.8769938592"><ele>251.04</ele><time>2015-08-19T09:52:36Z</time></trkpt><trkpt lat="51.9457576890" lon="-1.8769822083"><ele>259.69</ele><time>2015-08-19T09:52:37Z</time></trkpt><trkpt lat="51.9457554258" lon="-1.8769743294"><ele>254.89</ele><time>2015-08-19T09:52:38Z</time></trkpt><trkpt lat="51.9457477983" lon="-1.8769843038"><ele>254.41</ele><time>2015-08-19T09:52:53Z</time></trkpt><trkpt lat="51.9457493909" lon="-1.8769951165"><ele>254.41</ele><time>2015-08-19T09:53:00Z</time></trkpt><trkpt lat="51.9458690006" lon="-1.8770770077"><ele>254.41</ele><time>2015-08-19T09:53:14Z</time></trkpt><trkpt lat="51.9458764605" lon="-1.8770836294"><ele>254.41</ele><time>2015-08-19T09:53:15Z</time></trkpt><trkpt lat="51.9459957350" lon="-1.8772199191"><ele>255.37</ele><time>2015-08-19T09:53:31Z</time></trkpt><trkpt lat="51.9460013509" lon="-1.8772274628"><ele>255.37</ele><time>2015-08-19T09:53:32Z</time></trkpt><trkpt lat="51.9461130816" lon="-1.8773385230"><ele>255.37</ele><time>2015-08-19T09:53:47Z</time></trkpt><trkpt lat="51.9461161830" lon="-1.8773448933"><ele>252.00</ele><time>2015-08-19T09:53:50Z</time></trkpt><trkpt lat="51.9461168535" lon="-1.8773469049"><ele>255.85</ele><time>2015-08-19T09:53:51Z</time></trkpt><trkpt lat="51.9461096451" lon="-1.8773881439"><ele>254.89</ele><time>2015-08-19T09:54:16Z</time></trkpt><trkpt lat="51.9461088069" lon="-1.8774069194"><ele>254.89</ele><time>2015-08-19T09:54:33Z</time></trkpt><trkpt lat="51.9461088069" lon="-1.8774223421"><ele>254.89</ele><time>2015-08-19T09:54:51Z</time></trkpt><trkpt lat="51.9460974913" lon="-1.8773951009"><ele>254.41</ele><time>2015-08-19T09:55:11Z</time></trkpt><trkpt lat="51.9460715912" lon="-1.8773816060"><ele>254.89</ele><time>2015-08-19T09:55:31Z</time></trkpt><trkpt lat="51.9460795540" lon="-1.8774033152"><ele>254.89</ele><time>2015-08-19T09:55:55Z</time></trkpt><trkpt lat="51.9460726809" lon="-1.8774142116"><ele>255.37</ele><time>2015-08-19T09:56:21Z</time></trkpt><trkpt lat="51.9460726809" lon="-1.8774050754"><ele>255.37</ele><time>2015-08-19T09:56:43Z</time></trkpt><trkpt lat="51.9460815657" lon="-1.8774237670"><ele>254.89</ele><time>2015-08-19T09:57:04Z</time></trkpt><trkpt lat="51.9460857566" lon="-1.8774421234"><ele>254.89</ele><time>2015-08-19T09:57:34Z</time></trkpt><trkpt lat="51.9460753631" lon="-1.8774519302"><ele>254.41</ele><time>2015-08-19T09:58:03Z</time></trkpt><trkpt lat="51.9460728485" lon="-1.8774589710"><ele>254.89</ele><time>2015-08-19T09:58:38Z</time></trkpt><trkpt lat="51.9460684899" lon="-1.8774731364"><ele>254.41</ele><time>2015-08-19T09:59:04Z</time></trkpt><trkpt lat="51.9460668135" lon="-1.8774753157"><ele>254.41</ele><time>2015-08-19T09:59:27Z</time></trkpt><trkpt lat="51.9460705016" lon="-1.8774776626"><ele>254.41</ele><time>2015-08-19T09:59:56Z</time></trkpt><trkpt lat="51.9460614491" lon="-1.8774794228"><ele>254.41</ele><time>2015-08-19T10:00:23Z</time></trkpt><trkpt lat="51.9460643828" lon="-1.8774764054"><ele>253.44</ele><time>2015-08-19T10:00:48Z</time></trkpt><trkpt lat="51.9460648857" lon="-1.8774784170"><ele>254.41</ele><time>2015-08-19T10:01:14Z</time></trkpt><trkpt lat="51.9460669812" lon="-1.8774827756"><ele>253.44</ele><time>2015-08-19T10:01:46Z</time></trkpt><trkpt lat="51.9460607786" lon="-1.8774816021"><ele>253.93</ele><time>2015-08-19T10:02:14Z</time></trkpt><trkpt lat="51.9460637961" lon="-1.8774935044"><ele>253.44</ele><time>2015-08-19T10:02:40Z</time></trkpt><trkpt lat="51.9460667297" lon="-1.8774997909"><ele>253.44</ele><time>2015-08-19T10:03:09Z</time></trkpt><trkpt lat="51.9460709207" lon="-1.8774984498"><ele>252.96</ele><time>2015-08-19T10:03:42Z</time></trkpt><trkpt lat="51.9460682385" lon="-1.8775008805"><ele>253.44</ele><time>2015-08-19T10:04:13Z</time></trkpt><trkpt lat="51.9460678194" lon="-1.8774991203"><ele>253.44</ele><time>2015-08-19T10:04:44Z</time></trkpt><trkpt lat="51.9460728485" lon="-1.8775018025"><ele>253.44</ele><time>2015-08-19T10:05:12Z</time></trkpt><trkpt lat="51.9460886903" lon="-1.8774957675"><ele>253.44</ele><time>2015-08-19T10:05:40Z</time></trkpt><trkpt lat="51.9460906181" lon="-1.8774944264"><ele>253.44</ele><time>2015-08-19T10:06:11Z</time></trkpt><trkpt lat="51.9460914563" lon="-1.8774898164"><ele>253.93</ele><time>2015-08-19T10:06:38Z</time></trkpt><trkpt lat="51.9460901152" lon="-1.8774927501"><ele>253.93</ele><time>2015-08-19T10:07:06Z</time></trkpt><trkpt lat="51.9460918754" lon="-1.8774963543"><ele>252.96</ele><time>2015-08-19T10:07:36Z</time></trkpt><trkpt lat="51.9460958149" lon="-1.8775033951"><ele>253.44</ele><time>2015-08-19T10:08:12Z</time></trkpt><trkpt lat="51.9461031910" lon="-1.8775201589"><ele>252.96</ele><time>2015-08-19T10:08:38Z</time></trkpt><trkpt lat="51.9461000897" lon="-1.8775186501"><ele>249.12</ele><time>2015-08-19T10:08:44Z</time></trkpt><trkpt lat="51.9461005926" lon="-1.8775178120"><ele>254.89</ele><time>2015-08-19T10:08:45Z</time></trkpt><trkpt lat="51.9461046159" lon="-1.8774947617"><ele>252.96</ele><time>2015-08-19T10:09:11Z</time></trkpt><trkpt lat="51.9461013470" lon="-1.8774847034"><ele>252.96</ele><time>2015-08-19T10:09:33Z</time></trkpt><trkpt lat="51.9460403267" lon="-1.8777324725"><ele>252.48</ele><time>2015-08-19T10:09:49Z</time></trkpt><trkpt lat="51.9460797217" lon="-1.8778571952"><ele>252.96</ele><time>2015-08-19T10:10:00Z</time></trkpt><trkpt lat="51.9461327791" lon="-1.8779440317"><ele>252.48</ele><time>2015-08-19T10:10:07Z</time></trkpt><trkpt lat="51.9461394846" lon="-1.8780466262"><ele>252.96</ele><time>2015-08-19T10:10:13Z</time></trkpt><trkpt lat="51.9460662268" lon="-1.8780236598"><ele>252.48</ele><time>2015-08-19T10:10:25Z</time></trkpt><trkpt lat="51.9460668974" lon="-1.8780519906"><ele>252.00</ele><time>2015-08-19T10:10:27Z</time></trkpt><trkpt lat="51.9460729323" lon="-1.8781544175"><ele>251.52</ele><time>2015-08-19T10:10:33Z</time></trkpt><trkpt lat="51.9460956473" lon="-1.8784390669"><ele>252.00</ele><time>2015-08-19T10:10:48Z</time></trkpt><trkpt lat="51.9460878521" lon="-1.8785267416"><ele>251.52</ele><time>2015-08-19T10:10:53Z</time></trkpt><trkpt lat="51.9461316895" lon="-1.8787791207"><ele>251.52</ele><time>2015-08-19T10:11:06Z</time></trkpt><trkpt lat="51.9461519737" lon="-1.8789381254"><ele>251.52</ele><time>2015-08-19T10:11:15Z</time></trkpt><trkpt lat="51.9461570028" lon="-1.8789822143"><ele>251.52</ele><time>2015-08-19T10:11:17Z</time></trkpt><trkpt lat="51.9461702462" lon="-1.8791823741"><ele>251.52</ele><time>2015-08-19T10:11:27Z</time></trkpt><trkpt lat="51.9461702462" lon="-1.8792480044"><ele>251.04</ele><time>2015-08-19T10:11:30Z</time></trkpt><trkpt lat="51.9461912010" lon="-1.8795794249"><ele>251.04</ele><time>2015-08-19T10:11:46Z</time></trkpt><trkpt lat="51.9461978227" lon="-1.8797383457"><ele>251.52</ele><time>2015-08-19T10:11:54Z</time></trkpt><trkpt lat="51.9462202024" lon="-1.8800161220"><ele>250.56</ele><time>2015-08-19T10:12:07Z</time></trkpt><trkpt lat="51.9462444261" lon="-1.8801140226"><ele>250.56</ele><time>2015-08-19T10:12:13Z</time></trkpt><trkpt lat="51.9462613575" lon="-1.8802560121"><ele>248.64</ele><time>2015-08-19T10:12:22Z</time></trkpt><trkpt lat="51.9462642912" lon="-1.8803081475"><ele>248.64</ele><time>2015-08-19T10:12:24Z</time></trkpt><trkpt lat="51.9462720025" lon="-1.8805976585"><ele>248.64</ele><time>2015-08-19T10:12:38Z</time></trkpt><trkpt lat="51.9462747686" lon="-1.8806983251"><ele>248.64</ele><time>2015-08-19T10:12:53Z</time></trkpt><trkpt lat="51.9462590944" lon="-1.8808380514"><ele>249.60</ele><time>2015-08-19T10:13:08Z</time></trkpt><trkpt lat="51.9462177716" lon="-1.8809873331"><ele>249.12</ele><time>2015-08-19T10:13:16Z</time></trkpt><trkpt lat="51.9462133292" lon="-1.8812102918"><ele>250.08</ele><time>2015-08-19T10:13:30Z</time></trkpt><trkpt lat="51.9462103117" lon="-1.8812242057"><ele>250.08</ele><time>2015-08-19T10:13:31Z</time></trkpt><trkpt lat="51.9461956434" lon="-1.8814104516"><ele>250.08</ele><time>2015-08-19T10:13:44Z</time></trkpt><trkpt lat="51.9461827353" lon="-1.8814985454"><ele>250.08</ele><time>2015-08-19T10:13:51Z</time></trkpt><trkpt lat="51.9461843278" lon="-1.8815556262"><ele>250.56</ele><time>2015-08-19T10:13:55Z</time></trkpt><trkpt lat="51.9461834896" lon="-1.8817344960"><ele>250.56</ele><time>2015-08-19T10:14:06Z</time></trkpt><trkpt lat="51.9461637922" lon="-1.8819300458"><ele>250.56</ele><time>2015-08-19T10:14:19Z</time></trkpt><trkpt lat="51.9461503811" lon="-1.8821053952"><ele>251.52</ele><time>2015-08-19T10:14:31Z</time></trkpt><trkpt lat="51.9461347070" lon="-1.8822132703"><ele>252.96</ele><time>2015-08-19T10:14:40Z</time></trkpt><trkpt lat="51.9461014308" lon="-1.8823876977"><ele>253.44</ele><time>2015-08-19T10:14:54Z</time></trkpt><trkpt lat="51.9460758660" lon="-1.8824779708"><ele>253.93</ele><time>2015-08-19T10:15:08Z</time></trkpt><trkpt lat="51.9460756984" lon="-1.8824786413"><ele>254.89</ele><time>2015-08-19T10:15:09Z</time></trkpt><trkpt lat="51.9460668974" lon="-1.8825270049"><ele>253.93</ele><time>2015-08-19T10:15:12Z</time></trkpt><trkpt lat="51.9460500497" lon="-1.8825634662"><ele>253.93</ele><time>2015-08-19T10:15:15Z</time></trkpt><trkpt lat="51.9460311905" lon="-1.8825889472"><ele>253.93</ele><time>2015-08-19T10:15:18Z</time></trkpt><trkpt lat="51.9459902868" lon="-1.8827456888"><ele>252.00</ele><time>2015-08-19T10:15:29Z</time></trkpt><trkpt lat="51.9459741097" lon="-1.8828305136"><ele>252.48</ele><time>2015-08-19T10:15:35Z</time></trkpt><trkpt lat="51.9459746964" lon="-1.8828616105"><ele>252.96</ele><time>2015-08-19T10:15:37Z</time></trkpt><trkpt lat="51.9459539931" lon="-1.8830408156"><ele>252.48</ele><time>2015-08-19T10:15:49Z</time></trkpt><trkpt lat="51.9459514786" lon="-1.8831099663"><ele>252.48</ele><time>2015-08-19T10:16:02Z</time></trkpt><trkpt lat="51.9459511433" lon="-1.8831210304"><ele>252.48</ele><time>2015-08-19T10:16:03Z</time></trkpt><trkpt lat="51.9459342118" lon="-1.8832651991"><ele>252.48</ele><time>2015-08-19T10:16:15Z</time></trkpt><trkpt lat="51.9459353015" lon="-1.8833403848"><ele>250.56</ele><time>2015-08-19T10:16:29Z</time></trkpt><trkpt lat="51.9459213875" lon="-1.8834767584"><ele>250.56</ele><time>2015-08-19T10:16:43Z</time></trkpt><trkpt lat="51.9459092338" lon="-1.8836205918"><ele>250.08</ele><time>2015-08-19T10:16:53Z</time></trkpt><trkpt lat="51.9459077250" lon="-1.8836963642"><ele>249.12</ele><time>2015-08-19T10:16:58Z</time></trkpt><trkpt lat="51.9459078927" lon="-1.8838489149"><ele>248.64</ele><time>2015-08-19T10:17:09Z</time></trkpt><trkpt lat="51.9459120836" lon="-1.8838840351"><ele>248.64</ele><time>2015-08-19T10:17:12Z</time></trkpt><trkpt lat="51.9459020253" lon="-1.8840012979"><ele>248.16</ele><time>2015-08-19T10:17:23Z</time></trkpt><trkpt lat="51.9458969962" lon="-1.8841452152"><ele>246.23</ele><time>2015-08-19T10:17:34Z</time></trkpt><trkpt lat="51.9459092338" lon="-1.8843293656"><ele>245.75</ele><time>2015-08-19T10:17:47Z</time></trkpt><trkpt lat="51.9459005166" lon="-1.8843796570"><ele>245.27</ele><time>2015-08-19T10:17:58Z</time></trkpt><trkpt lat="51.9458980858" lon="-1.8843925651"><ele>245.27</ele><time>2015-08-19T10:18:25Z</time></trkpt><trkpt lat="51.9458987564" lon="-1.8843916431"><ele>243.83</ele><time>2015-08-19T10:18:29Z</time></trkpt><trkpt lat="51.9459043723" lon="-1.8844232429"><ele>246.23</ele><time>2015-08-19T10:18:59Z</time></trkpt><trkpt lat="51.9459104910" lon="-1.8844395038"><ele>245.75</ele><time>2015-08-19T10:19:00Z</time></trkpt><trkpt lat="51.9459292665" lon="-1.8846788909"><ele>244.79</ele><time>2015-08-19T10:19:12Z</time></trkpt><trkpt lat="51.9459308591" lon="-1.8847306073"><ele>244.31</ele><time>2015-08-19T10:19:16Z</time></trkpt><trkpt lat="51.9459534064" lon="-1.8848275859"><ele>244.79</ele><time>2015-08-19T10:19:21Z</time></trkpt><trkpt lat="51.9459570106" lon="-1.8851337768"><ele>243.83</ele><time>2015-08-19T10:19:36Z</time></trkpt><trkpt lat="51.9459419232" lon="-1.8854150735"><ele>242.87</ele><time>2015-08-19T10:19:49Z</time></trkpt><trkpt lat="51.9459229801" lon="-1.8856818695"><ele>242.39</ele><time>2015-08-19T10:20:02Z</time></trkpt><trkpt lat="51.9459276740" lon="-1.8858165666"><ele>241.91</ele><time>2015-08-19T10:20:08Z</time></trkpt><trkpt lat="51.9459301885" lon="-1.8860911578"><ele>241.43</ele><time>2015-08-19T10:20:22Z</time></trkpt><trkpt lat="51.9459265843" lon="-1.8863505777"><ele>240.47</ele><time>2015-08-19T10:20:34Z</time></trkpt><trkpt lat="51.9459391572" lon="-1.8865545932"><ele>239.51</ele><time>2015-08-19T10:20:44Z</time></trkpt><trkpt lat="51.9459622074" lon="-1.8867334630"><ele>238.54</ele><time>2015-08-19T10:20:52Z</time></trkpt><trkpt lat="51.9459777977" lon="-1.8868265860"><ele>238.54</ele><time>2015-08-19T10:20:57Z</time></trkpt><trkpt lat="51.9459903706" lon="-1.8869731855"><ele>238.06</ele><time>2015-08-19T10:21:04Z</time></trkpt><trkpt lat="51.9460031949" lon="-1.8870699964"><ele>237.58</ele><time>2015-08-19T10:21:09Z</time></trkpt><trkpt lat="51.9460066315" lon="-1.8872098904"><ele>235.18</ele><time>2015-08-19T10:21:15Z</time></trkpt><trkpt lat="51.9460176956" lon="-1.8872538954"><ele>236.62</ele><time>2015-08-19T10:21:17Z</time></trkpt><trkpt lat="51.9460333697" lon="-1.8872919492"><ele>235.66</ele><time>2015-08-19T10:21:20Z</time></trkpt><trkpt lat="51.9460556656" lon="-1.8874450866"><ele>234.70</ele><time>2015-08-19T10:21:28Z</time></trkpt><trkpt lat="51.9460542407" lon="-1.8874950428"><ele>234.22</ele><time>2015-08-19T10:21:31Z</time></trkpt><trkpt lat="51.9460819848" lon="-1.8876001518"><ele>233.26</ele><time>2015-08-19T10:21:39Z</time></trkpt><trkpt lat="51.9461181946" lon="-1.8877391238"><ele>232.78</ele><time>2015-08-19T10:21:52Z</time></trkpt><trkpt lat="51.9462150894" lon="-1.8878691271"><ele>231.81</ele><time>2015-08-19T10:22:07Z</time></trkpt><trkpt lat="51.9463051949" lon="-1.8879609089"><ele>231.81</ele><time>2015-08-19T10:22:20Z</time></trkpt><trkpt lat="51.9463859126" lon="-1.8880722206"><ele>230.37</ele><time>2015-08-19T10:22:34Z</time></trkpt><trkpt lat="51.9464989845" lon="-1.8881862983"><ele>228.93</ele><time>2015-08-19T10:22:52Z</time></trkpt><trkpt lat="51.9466111343" lon="-1.8883049022"><ele>227.97</ele><time>2015-08-19T10:23:04Z</time></trkpt><trkpt lat="51.9467656128" lon="-1.8884330615"><ele>227.01</ele><time>2015-08-19T10:23:19Z</time></trkpt><trkpt lat="51.9469090272" lon="-1.8884858675"><ele>226.05</ele><time>2015-08-19T10:23:32Z</time></trkpt><trkpt lat="51.9470471609" lon="-1.8885001168"><ele>225.57</ele><time>2015-08-19T10:23:47Z</time></trkpt><trkpt lat="51.9471734762" lon="-1.8885426130"><ele>224.61</ele><time>2015-08-19T10:24:02Z</time></trkpt><trkpt lat="51.9473267812" lon="-1.8886110093"><ele>225.09</ele><time>2015-08-19T10:24:18Z</time></trkpt><trkpt lat="51.9474237598" lon="-1.8886421900"><ele>225.09</ele><time>2015-08-19T10:24:31Z</time></trkpt><trkpt lat="51.9475575350" lon="-1.8887802400"><ele>225.57</ele><time>2015-08-19T10:24:46Z</time></trkpt><trkpt lat="51.9476025458" lon="-1.8888060562"><ele>225.57</ele><time>2015-08-19T10:24:50Z</time></trkpt><trkpt lat="51.9476659130" lon="-1.8888559286"><ele>225.57</ele><time>2015-08-19T10:24:58Z</time></trkpt><trkpt lat="51.9477561023" lon="-1.8889648933"><ele>225.57</ele><time>2015-08-19T10:25:12Z</time></trkpt><trkpt lat="51.9477934856" lon="-1.8890517298"><ele>225.09</ele><time>2015-08-19T10:25:21Z</time></trkpt><trkpt lat="51.9478680845" lon="-1.8892125785"><ele>224.12</ele><time>2015-08-19T10:25:35Z</time></trkpt><trkpt lat="51.9479661528" lon="-1.8893551547"><ele>224.12</ele><time>2015-08-19T10:25:50Z</time></trkpt><trkpt lat="51.9480506424" lon="-1.8895171769"><ele>224.12</ele><time>2015-08-19T10:26:04Z</time></trkpt><trkpt lat="51.9480653107" lon="-1.8895374611"><ele>223.64</ele><time>2015-08-19T10:26:06Z</time></trkpt><trkpt lat="51.9481462799" lon="-1.8896926101"><ele>223.64</ele><time>2015-08-19T10:26:19Z</time></trkpt><trkpt lat="51.9482379779" lon="-1.8898328394"><ele>223.16</ele><time>2015-08-19T10:26:32Z</time></trkpt><trkpt lat="51.9483272452" lon="-1.8899745774"><ele>222.68</ele><time>2015-08-19T10:26:46Z</time></trkpt><trkpt lat="51.9483507983" lon="-1.8900086079"><ele>223.16</ele><time>2015-08-19T10:26:50Z</time></trkpt><trkpt lat="51.9484254811" lon="-1.8901258707"><ele>222.68</ele><time>2015-08-19T10:27:01Z</time></trkpt><trkpt lat="51.9484553207" lon="-1.8901550397"><ele>222.68</ele><time>2015-08-19T10:27:04Z</time></trkpt><trkpt lat="51.9485336076" lon="-1.8902220111"><ele>222.20</ele><time>2015-08-19T10:27:13Z</time></trkpt><trkpt lat="51.9486699812" lon="-1.8903446384"><ele>222.20</ele><time>2015-08-19T10:27:28Z</time></trkpt><trkpt lat="51.9486871641" lon="-1.8903539423"><ele>221.72</ele><time>2015-08-19T10:27:30Z</time></trkpt><trkpt lat="51.9487429038" lon="-1.8904005457"><ele>222.20</ele><time>2015-08-19T10:27:36Z</time></trkpt><trkpt lat="51.9489006512" lon="-1.8904691096"><ele>220.76</ele><time>2015-08-19T10:27:51Z</time></trkpt><trkpt lat="51.9490060955" lon="-1.8905169703"><ele>220.76</ele><time>2015-08-19T10:28:04Z</time></trkpt><trkpt lat="51.9491198380" lon="-1.8905758951"><ele>220.28</ele><time>2015-08-19T10:28:17Z</time></trkpt><trkpt lat="51.9491966162" lon="-1.8905981909"><ele>220.28</ele><time>2015-08-19T10:28:25Z</time></trkpt><trkpt lat="51.9492996298" lon="-1.8906112667"><ele>219.32</ele><time>2015-08-19T10:28:36Z</time></trkpt><trkpt lat="51.9494403619" lon="-1.8906411063"><ele>218.36</ele><time>2015-08-19T10:28:50Z</time></trkpt><trkpt lat="51.9494987000" lon="-1.8906392623"><ele>218.36</ele><time>2015-08-19T10:28:57Z</time></trkpt><trkpt lat="51.9496186450" lon="-1.8906161282"><ele>217.88</ele><time>2015-08-19T10:29:11Z</time></trkpt><trkpt lat="51.9496357441" lon="-1.8906128593"><ele>217.40</ele><time>2015-08-19T10:29:18Z</time></trkpt><trkpt lat="51.9497022126" lon="-1.8905855343"><ele>216.43</ele><time>2015-08-19T10:29:25Z</time></trkpt><trkpt lat="51.9498170447" lon="-1.8905603047"><ele>215.47</ele><time>2015-08-19T10:29:37Z</time></trkpt><trkpt lat="51.9499540050" lon="-1.8904917408"><ele>213.55</ele><time>2015-08-19T10:29:53Z</time></trkpt><trkpt lat="51.9500975870" lon="-1.8904052395"><ele>212.11</ele><time>2015-08-19T10:30:10Z</time></trkpt><trkpt lat="51.9502144307" lon="-1.8903213367"><ele>211.63</ele><time>2015-08-19T10:30:23Z</time></trkpt><trkpt lat="51.9503071345" lon="-1.8902443908"><ele>211.15</ele><time>2015-08-19T10:30:35Z</time></trkpt><trkpt lat="51.9503694121" lon="-1.8902017269"><ele>209.70</ele><time>2015-08-19T10:30:42Z</time></trkpt><trkpt lat="51.9504807238" lon="-1.8901037425"><ele>210.19</ele><time>2015-08-19T10:30:56Z</time></trkpt><trkpt lat="51.9505879283" lon="-1.8899779301"><ele>208.74</ele><time>2015-08-19T10:31:12Z</time></trkpt><trkpt lat="51.9506003335" lon="-1.8899684586"><ele>208.26</ele><time>2015-08-19T10:31:14Z</time></trkpt><trkpt lat="51.9506396446" lon="-1.8899183348"><ele>208.26</ele><time>2015-08-19T10:31:19Z</time></trkpt><trkpt lat="51.9506952167" lon="-1.8898348510"><ele>208.26</ele><time>2015-08-19T10:31:27Z</time></trkpt><trkpt lat="51.9507100526" lon="-1.8898045085"><ele>207.78</ele><time>2015-08-19T10:31:30Z</time></trkpt><trkpt lat="51.9507354498" lon="-1.8897650298"><ele>207.30</ele><time>2015-08-19T10:31:34Z</time></trkpt><trkpt lat="51.9507662952" lon="-1.8897136487"><ele>207.78</ele><time>2015-08-19T10:31:38Z</time></trkpt><trkpt lat="51.9508450851" lon="-1.8895774428"><ele>207.30</ele><time>2015-08-19T10:31:51Z</time></trkpt><trkpt lat="51.9509517867" lon="-1.8894254789"><ele>206.82</ele><time>2015-08-19T10:32:05Z</time></trkpt><trkpt lat="51.9510275591" lon="-1.8893528916"><ele>206.82</ele><time>2015-08-19T10:32:20Z</time></trkpt><trkpt lat="51.9510818738" lon="-1.8893362954"><ele>206.82</ele><time>2015-08-19T10:32:33Z</time></trkpt><trkpt lat="51.9511620887" lon="-1.8893578369"><ele>206.82</ele><time>2015-08-19T10:32:45Z</time></trkpt><trkpt lat="51.9511677884" lon="-1.8893779535"><ele>206.82</ele><time>2015-08-19T10:33:05Z</time></trkpt><trkpt lat="51.9511722308" lon="-1.8893834855"><ele>207.30</ele><time>2015-08-19T10:33:25Z</time></trkpt><trkpt lat="51.9511773437" lon="-1.8893824797"><ele>207.30</ele><time>2015-08-19T10:33:50Z</time></trkpt><trkpt lat="51.9512166549" lon="-1.8893995788"><ele>207.30</ele><time>2015-08-19T10:34:03Z</time></trkpt><trkpt lat="51.9512480870" lon="-1.8894318491"><ele>207.30</ele><time>2015-08-19T10:34:24Z</time></trkpt><trkpt lat="51.9513233565" lon="-1.8895650376"><ele>206.82</ele><time>2015-08-19T10:34:37Z</time></trkpt><trkpt lat="51.9513319898" lon="-1.8895720784"><ele>207.30</ele><time>2015-08-19T10:34:38Z</time></trkpt><trkpt lat="51.9513430540" lon="-1.8895992357"><ele>207.30</ele><time>2015-08-19T10:34:40Z</time></trkpt><trkpt lat="51.9513676129" lon="-1.8896835577"><ele>208.26</ele><time>2015-08-19T10:34:47Z</time></trkpt><trkpt lat="51.9513964467" lon="-1.8897452485"><ele>207.78</ele><time>2015-08-19T10:34:52Z</time></trkpt><trkpt lat="51.9514044095" lon="-1.8897724058"><ele>209.70</ele><time>2015-08-19T10:34:54Z</time></trkpt><trkpt lat="51.9514282141" lon="-1.8898374494"><ele>209.70</ele><time>2015-08-19T10:35:00Z</time></trkpt><trkpt lat="51.9514457323" lon="-1.8899026606"><ele>209.70</ele><time>2015-08-19T10:35:05Z</time></trkpt><trkpt lat="51.9514506776" lon="-1.8899320811"><ele>209.70</ele><time>2015-08-19T10:35:07Z</time></trkpt><trkpt lat="51.9514890667" lon="-1.8900803570"><ele>210.19</ele><time>2015-08-19T10:35:18Z</time></trkpt><trkpt lat="51.9515163917" lon="-1.8902238552"><ele>210.67</ele><time>2015-08-19T10:35:29Z</time></trkpt><trkpt lat="51.9515525177" lon="-1.8903702032"><ele>212.59</ele><time>2015-08-19T10:35:41Z</time></trkpt><trkpt lat="51.9515659288" lon="-1.8904520106"><ele>213.55</ele><time>2015-08-19T10:35:53Z</time></trkpt><trkpt lat="51.9515697844" lon="-1.8904638290"><ele>213.55</ele><time>2015-08-19T10:36:07Z</time></trkpt><trkpt lat="51.9515727181" lon="-1.8905017152"><ele>214.51</ele><time>2015-08-19T10:36:15Z</time></trkpt><trkpt lat="51.9515764900" lon="-1.8906090874"><ele>214.03</ele><time>2015-08-19T10:36:22Z</time></trkpt><trkpt lat="51.9515787531" lon="-1.8907285295"><ele>214.99</ele><time>2015-08-19T10:36:30Z</time></trkpt><trkpt lat="51.9515956007" lon="-1.8908873666"><ele>215.47</ele><time>2015-08-19T10:36:42Z</time></trkpt><trkpt lat="51.9516354986" lon="-1.8910363130"><ele>216.43</ele><time>2015-08-19T10:36:55Z</time></trkpt><trkpt lat="51.9516561180" lon="-1.8912225589"><ele>216.91</ele><time>2015-08-19T10:37:09Z</time></trkpt><trkpt lat="51.9516880531" lon="-1.8913420849"><ele>218.36</ele><time>2015-08-19T10:37:17Z</time></trkpt><trkpt lat="51.9516937528" lon="-1.8914502952"><ele>218.84</ele><time>2015-08-19T10:37:23Z</time></trkpt><trkpt lat="51.9517002068" lon="-1.8915843219"><ele>218.36</ele><time>2015-08-19T10:37:33Z</time></trkpt><trkpt lat="51.9517029729" lon="-1.8916121498"><ele>219.32</ele><time>2015-08-19T10:37:35Z</time></trkpt><trkpt lat="51.9517112710" lon="-1.8917846493"><ele>220.28</ele><time>2015-08-19T10:37:48Z</time></trkpt><trkpt lat="51.9517284539" lon="-1.8918576557"><ele>220.76</ele><time>2015-08-19T10:38:00Z</time></trkpt><trkpt lat="51.9517362490" lon="-1.8918698095"><ele>220.76</ele><time>2015-08-19T10:38:15Z</time></trkpt><trkpt lat="51.9517463073" lon="-1.8918674625"><ele>220.76</ele><time>2015-08-19T10:38:35Z</time></trkpt><trkpt lat="51.9517409429" lon="-1.8918750901"><ele>220.76</ele><time>2015-08-19T10:38:55Z</time></trkpt><trkpt lat="51.9517430384" lon="-1.8918828014"><ele>220.76</ele><time>2015-08-19T10:39:15Z</time></trkpt><trkpt lat="51.9517655019" lon="-1.8919407204"><ele>220.76</ele><time>2015-08-19T10:39:27Z</time></trkpt><trkpt lat="51.9517820142" lon="-1.8919599149"><ele>220.76</ele><time>2015-08-19T10:39:41Z</time></trkpt><trkpt lat="51.9518023822" lon="-1.8919827137"><ele>220.76</ele><time>2015-08-19T10:39:47Z</time></trkpt><trkpt lat="51.9518364128" lon="-1.8920587376"><ele>220.76</ele><time>2015-08-19T10:39:52Z</time></trkpt><trkpt lat="51.9518855307" lon="-1.8922054209"><ele>221.24</ele><time>2015-08-19T10:40:05Z</time></trkpt><trkpt lat="51.9518921524" lon="-1.8922195863"><ele>221.24</ele><time>2015-08-19T10:40:09Z</time></trkpt><trkpt lat="51.9519064855" lon="-1.8922647648"><ele>221.24</ele><time>2015-08-19T10:40:12Z</time></trkpt><trkpt lat="51.9519263506" lon="-1.8923141342"><ele>221.24</ele><time>2015-08-19T10:40:15Z</time></trkpt><trkpt lat="51.9519604649" lon="-1.8924120348"><ele>220.28</ele><time>2015-08-19T10:40:22Z</time></trkpt><trkpt lat="51.9519944955" lon="-1.8925456423"><ele>222.20</ele><time>2015-08-19T10:40:31Z</time></trkpt><trkpt lat="51.9520249218" lon="-1.8927006237"><ele>221.72</ele><time>2015-08-19T10:40:44Z</time></trkpt><trkpt lat="51.9520967547" lon="-1.8928674236"><ele>223.64</ele><time>2015-08-19T10:40:58Z</time></trkpt><trkpt lat="51.9521168713" lon="-1.8928841036"><ele>223.64</ele><time>2015-08-19T10:41:01Z</time></trkpt><trkpt lat="51.9521583617" lon="-1.8929861113"><ele>224.12</ele><time>2015-08-19T10:41:15Z</time></trkpt><trkpt lat="51.9521584455" lon="-1.8930330500"><ele>224.12</ele><time>2015-08-19T10:41:18Z</time></trkpt><trkpt lat="51.9521783944" lon="-1.8931177910"><ele>224.12</ele><time>2015-08-19T10:41:24Z</time></trkpt><trkpt lat="51.9521963317" lon="-1.8931726925"><ele>224.61</ele><time>2015-08-19T10:41:28Z</time></trkpt><trkpt lat="51.9522089884" lon="-1.8933007680"><ele>224.12</ele><time>2015-08-19T10:41:37Z</time></trkpt><trkpt lat="51.9522234891" lon="-1.8934077211"><ele>224.61</ele><time>2015-08-19T10:41:47Z</time></trkpt><trkpt lat="51.9522297755" lon="-1.8934718426"><ele>224.61</ele><time>2015-08-19T10:41:51Z</time></trkpt><trkpt lat="51.9522465393" lon="-1.8935611937"><ele>226.05</ele><time>2015-08-19T10:41:57Z</time></trkpt><trkpt lat="51.9522485510" lon="-1.8935953919"><ele>226.05</ele><time>2015-08-19T10:41:59Z</time></trkpt><trkpt lat="51.9522580225" lon="-1.8936837371"><ele>225.57</ele><time>2015-08-19T10:42:06Z</time></trkpt><trkpt lat="51.9522789773" lon="-1.8938496150"><ele>226.53</ele><time>2015-08-19T10:42:18Z</time></trkpt><trkpt lat="51.9523064699" lon="-1.8940200191"><ele>227.01</ele><time>2015-08-19T10:42:31Z</time></trkpt><trkpt lat="51.9523147680" lon="-1.8940415606"><ele>227.01</ele><time>2015-08-19T10:42:33Z</time></trkpt><trkpt lat="51.9523272570" lon="-1.8940955400"><ele>227.01</ele><time>2015-08-19T10:42:37Z</time></trkpt><trkpt lat="51.9523731899" lon="-1.8942607474"><ele>227.97</ele><time>2015-08-19T10:42:51Z</time></trkpt><trkpt lat="51.9524125848" lon="-1.8944447301"><ele>227.97</ele><time>2015-08-19T10:43:05Z</time></trkpt><trkpt lat="51.9524355512" lon="-1.8945526052"><ele>228.45</ele><time>2015-08-19T10:43:13Z</time></trkpt><trkpt lat="51.9524680730" lon="-1.8947161362"><ele>228.93</ele><time>2015-08-19T10:43:27Z</time></trkpt><trkpt lat="51.9524901174" lon="-1.8948836904"><ele>230.37</ele><time>2015-08-19T10:43:42Z</time></trkpt><trkpt lat="51.9524948113" lon="-1.8948914856"><ele>230.37</ele><time>2015-08-19T10:44:07Z</time></trkpt><trkpt lat="51.9524904527" lon="-1.8949036393"><ele>227.49</ele><time>2015-08-19T10:44:37Z</time></trkpt><trkpt lat="51.9524902850" lon="-1.8949043099"><ele>233.74</ele><time>2015-08-19T10:44:38Z</time></trkpt><trkpt lat="51.9524900336" lon="-1.8949048966"><ele>230.85</ele><time>2015-08-19T10:44:39Z</time></trkpt><trkpt lat="51.9524931349" lon="-1.8949385919"><ele>230.85</ele><time>2015-08-19T10:44:43Z</time></trkpt><trkpt lat="51.9525095634" lon="-1.8951119296"><ele>231.81</ele><time>2015-08-19T10:44:54Z</time></trkpt><trkpt lat="51.9525473658" lon="-1.8952859379"><ele>232.78</ele><time>2015-08-19T10:45:11Z</time></trkpt><trkpt lat="51.9525866769" lon="-1.8955152668"><ele>233.74</ele><time>2015-08-19T10:45:25Z</time></trkpt><trkpt lat="51.9526365492" lon="-1.8956850003"><ele>235.18</ele><time>2015-08-19T10:45:40Z</time></trkpt><trkpt lat="51.9527166802" lon="-1.8959354516"><ele>235.18</ele><time>2015-08-19T10:45:58Z</time></trkpt><trkpt lat="51.9527562428" lon="-1.8961440772"><ele>236.62</ele><time>2015-08-19T10:46:13Z</time></trkpt><trkpt lat="51.9527989067" lon="-1.8962547183"><ele>237.10</ele><time>2015-08-19T10:46:35Z</time></trkpt><trkpt lat="51.9528400619" lon="-1.8964070175"><ele>237.58</ele><time>2015-08-19T10:46:45Z</time></trkpt><trkpt lat="51.9528591726" lon="-1.8966235220"><ele>238.54</ele><time>2015-08-19T10:46:58Z</time></trkpt><trkpt lat="51.9529036805" lon="-1.8968333211"><ele>240.47</ele><time>2015-08-19T10:47:14Z</time></trkpt><trkpt lat="51.9529422373" lon="-1.8970344868"><ele>240.95</ele><time>2015-08-19T10:47:32Z</time></trkpt><trkpt lat="51.9529707357" lon="-1.8971582036"><ele>241.43</ele><time>2015-08-19T10:47:45Z</time></trkpt><trkpt lat="51.9529930316" lon="-1.8973932322"><ele>242.39</ele><time>2015-08-19T10:48:02Z</time></trkpt><trkpt lat="51.9530272298" lon="-1.8975823279"><ele>243.35</ele><time>2015-08-19T10:48:16Z</time></trkpt><trkpt lat="51.9530566502" lon="-1.8976804800"><ele>243.35</ele><time>2015-08-19T10:48:31Z</time></trkpt><trkpt lat="51.9530797005" lon="-1.8977610301"><ele>244.79</ele><time>2015-08-19T10:48:54Z</time></trkpt><trkpt lat="51.9530974701" lon="-1.8978561647"><ele>244.79</ele><time>2015-08-19T10:48:59Z</time></trkpt><trkpt lat="51.9531467557" lon="-1.8981758505"><ele>246.72</ele><time>2015-08-19T10:49:17Z</time></trkpt><trkpt lat="51.9531998970" lon="-1.8983963784"><ele>247.68</ele><time>2015-08-19T10:49:31Z</time></trkpt><trkpt lat="51.9532327540" lon="-1.8985237833"><ele>248.16</ele><time>2015-08-19T10:49:38Z</time></trkpt><trkpt lat="51.9533056766" lon="-1.8988169823"><ele>250.08</ele><time>2015-08-19T10:49:53Z</time></trkpt><trkpt lat="51.9533410482" lon="-1.8989867996"><ele>251.04</ele><time>2015-08-19T10:50:07Z</time></trkpt><trkpt lat="51.9533574767" lon="-1.8990443833"><ele>251.04</ele><time>2015-08-19T10:50:26Z</time></trkpt><trkpt lat="51.9534205087" lon="-1.8993097544"><ele>253.44</ele><time>2015-08-19T10:50:40Z</time></trkpt><trkpt lat="51.9534746557" lon="-1.8995313719"><ele>254.89</ele><time>2015-08-19T10:50:56Z</time></trkpt><trkpt lat="51.9535255339" lon="-1.8996524904"><ele>255.37</ele><time>2015-08-19T10:51:16Z</time></trkpt><trkpt lat="51.9535312336" lon="-1.8996936455"><ele>255.37</ele><time>2015-08-19T10:51:20Z</time></trkpt><trkpt lat="51.9535657670" lon="-1.8998100702"><ele>257.29</ele><time>2015-08-19T10:51:37Z</time></trkpt><trkpt lat="51.9535821956" lon="-1.8998623732"><ele>257.29</ele><time>2015-08-19T10:51:57Z</time></trkpt><trkpt lat="51.9536251109" lon="-1.8999811448"><ele>259.21</ele><time>2015-08-19T10:52:13Z</time></trkpt><trkpt lat="51.9536427967" lon="-1.9000392314"><ele>260.17</ele><time>2015-08-19T10:52:28Z</time></trkpt><trkpt lat="51.9536961894" lon="-1.8999943044"><ele>260.17</ele><time>2015-08-19T10:52:52Z</time></trkpt><trkpt lat="51.9537444692" lon="-1.8998926319"><ele>259.69</ele><time>2015-08-19T10:53:01Z</time></trkpt><trkpt lat="51.9537632447" lon="-1.8998059630"><ele>260.17</ele><time>2015-08-19T10:53:07Z</time></trkpt><trkpt lat="51.9537712913" lon="-1.8997645564"><ele>260.17</ele><time>2015-08-19T10:53:10Z</time></trkpt><trkpt lat="51.9538167212" lon="-1.8996075634"><ele>259.69</ele><time>2015-08-19T10:53:20Z</time></trkpt><trkpt lat="51.9538512547" lon="-1.8994412664"><ele>259.21</ele><time>2015-08-19T10:53:31Z</time></trkpt><trkpt lat="51.9538534340" lon="-1.8993978482"><ele>259.21</ele><time>2015-08-19T10:53:34Z</time></trkpt><trkpt lat="51.9538965169" lon="-1.8992758077"><ele>258.73</ele><time>2015-08-19T10:53:44Z</time></trkpt><trkpt lat="51.9539005402" lon="-1.8992399331"><ele>258.73</ele><time>2015-08-19T10:53:46Z</time></trkpt><trkpt lat="51.9539196510" lon="-1.8991519231"><ele>258.73</ele><time>2015-08-19T10:53:51Z</time></trkpt><trkpt lat="51.9539489038" lon="-1.8989746459"><ele>258.25</ele><time>2015-08-19T10:54:03Z</time></trkpt><trkpt lat="51.9539718702" lon="-1.8989329878"><ele>257.77</ele><time>2015-08-19T10:54:17Z</time></trkpt><trkpt lat="51.9539998658" lon="-1.8988061696"><ele>257.77</ele><time>2015-08-19T10:54:26Z</time></trkpt><trkpt lat="51.9540091697" lon="-1.8987545371"><ele>258.73</ele><time>2015-08-19T10:54:29Z</time></trkpt><trkpt lat="51.9540193956" lon="-1.8986932654"><ele>258.73</ele><time>2015-08-19T10:54:33Z</time></trkpt><trkpt lat="51.9540435355" lon="-1.8986082729"><ele>257.77</ele><time>2015-08-19T10:54:38Z</time></trkpt><trkpt lat="51.9540654961" lon="-1.8985203467"><ele>257.77</ele><time>2015-08-19T10:54:48Z</time></trkpt><trkpt lat="51.9540812541" lon="-1.8984602485"><ele>257.77</ele><time>2015-08-19T10:55:00Z</time></trkpt><trkpt lat="51.9540830143" lon="-1.8984044250"><ele>257.77</ele><time>2015-08-19T10:55:20Z</time></trkpt><trkpt lat="51.9540905580" lon="-1.8984009046"><ele>257.77</ele><time>2015-08-19T10:55:47Z</time></trkpt><trkpt lat="51.9541037176" lon="-1.8983783573"><ele>257.77</ele><time>2015-08-19T10:55:51Z</time></trkpt><trkpt lat="51.9541175477" lon="-1.8983153254"><ele>258.73</ele><time>2015-08-19T10:55:55Z</time></trkpt><trkpt lat="51.9541411847" lon="-1.8982369546"><ele>258.73</ele><time>2015-08-19T10:55:59Z</time></trkpt><trkpt lat="51.9541539252" lon="-1.8982030079"><ele>258.73</ele><time>2015-08-19T10:56:11Z</time></trkpt><trkpt lat="51.9541852735" lon="-1.8980474398"><ele>258.25</ele><time>2015-08-19T10:56:23Z</time></trkpt><trkpt lat="51.9541842677" lon="-1.8980436679"><ele>259.21</ele><time>2015-08-19T10:56:32Z</time></trkpt><trkpt lat="51.9542037975" lon="-1.8979206216"><ele>257.77</ele><time>2015-08-19T10:56:39Z</time></trkpt><trkpt lat="51.9542143587" lon="-1.8978878483"><ele>257.77</ele><time>2015-08-19T10:56:41Z</time></trkpt><trkpt lat="51.9542462099" lon="-1.8976645544"><ele>257.77</ele><time>2015-08-19T10:56:52Z</time></trkpt><trkpt lat="51.9542877004" lon="-1.8973690923"><ele>258.73</ele><time>2015-08-19T10:57:08Z</time></trkpt><trkpt lat="51.9542971719" lon="-1.8972979300"><ele>258.73</ele><time>2015-08-19T10:57:12Z</time></trkpt><trkpt lat="51.9542957470" lon="-1.8971815892"><ele>251.04</ele><time>2015-08-19T10:57:22Z</time></trkpt><trkpt lat="51.9542950764" lon="-1.8971820921"><ele>258.25</ele><time>2015-08-19T10:57:23Z</time></trkpt><trkpt lat="51.9542944897" lon="-1.8971815892"><ele>259.21</ele><time>2015-08-19T10:57:34Z</time></trkpt><trkpt lat="51.9543000218" lon="-1.8971797451"><ele>260.17</ele><time>2015-08-19T10:57:42Z</time></trkpt><trkpt lat="51.9543012790" lon="-1.8971509952"><ele>258.73</ele><time>2015-08-19T10:57:45Z</time></trkpt><trkpt lat="51.9543514028" lon="-1.8968758173"><ele>259.69</ele><time>2015-08-19T10:57:59Z</time></trkpt><trkpt lat="51.9543691725" lon="-1.8967677746"><ele>260.65</ele><time>2015-08-19T10:58:05Z</time></trkpt><trkpt lat="51.9544140156" lon="-1.8965281360"><ele>261.14</ele><time>2015-08-19T10:58:17Z</time></trkpt><trkpt lat="51.9544593617" lon="-1.8964177463"><ele>261.62</ele><time>2015-08-19T10:58:23Z</time></trkpt><trkpt lat="51.9545182027" lon="-1.8961979728"><ele>261.62</ele><time>2015-08-19T10:58:35Z</time></trkpt><trkpt lat="51.9545371458" lon="-1.8960471824"><ele>261.14</ele><time>2015-08-19T10:58:43Z</time></trkpt><trkpt lat="51.9545785524" lon="-1.8957986590"><ele>260.17</ele><time>2015-08-19T10:58:57Z</time></trkpt><trkpt lat="51.9546702504" lon="-1.8955409154"><ele>259.21</ele><time>2015-08-19T10:59:10Z</time></trkpt><trkpt lat="51.9546806440" lon="-1.8954953179"><ele>259.21</ele><time>2015-08-19T10:59:12Z</time></trkpt><trkpt lat="51.9547511358" lon="-1.8952368200"><ele>258.25</ele><time>2015-08-19T10:59:26Z</time></trkpt><trkpt lat="51.9548255671" lon="-1.8949451298"><ele>256.33</ele><time>2015-08-19T10:59:41Z</time></trkpt><trkpt lat="51.9548393972" lon="-1.8949076626"><ele>256.33</ele><time>2015-08-19T10:59:44Z</time></trkpt><trkpt lat="51.9549388904" lon="-1.8945030682"><ele>253.93</ele><time>2015-08-19T11:00:03Z</time></trkpt><trkpt lat="51.9549952168" lon="-1.8942371104"><ele>252.48</ele><time>2015-08-19T11:00:16Z</time></trkpt><trkpt lat="51.9551020861" lon="-1.8938974757"><ele>250.08</ele><time>2015-08-19T11:00:32Z</time></trkpt><trkpt lat="51.9551217835" lon="-1.8938494474"><ele>249.60</ele><time>2015-08-19T11:00:36Z</time></trkpt><trkpt lat="51.9551606756" lon="-1.8937563244"><ele>249.12</ele><time>2015-08-19T11:00:41Z</time></trkpt><trkpt lat="51.9552216120" lon="-1.8936511315"><ele>248.64</ele><time>2015-08-19T11:00:49Z</time></trkpt><trkpt lat="51.9552756753" lon="-1.8935606070"><ele>248.16</ele><time>2015-08-19T11:00:55Z</time></trkpt><trkpt lat="51.9553900883" lon="-1.8934118282"><ele>247.20</ele><time>2015-08-19T11:01:09Z</time></trkpt><trkpt lat="51.9554159045" lon="-1.8933561724"><ele>246.23</ele><time>2015-08-19T11:01:13Z</time></trkpt><trkpt lat="51.9554792717" lon="-1.8932451960"><ele>246.23</ele><time>2015-08-19T11:01:21Z</time></trkpt><trkpt lat="51.9554947782" lon="-1.8931856845"><ele>245.75</ele><time>2015-08-19T11:01:25Z</time></trkpt><trkpt lat="51.9555261265" lon="-1.8931356445"><ele>245.27</ele><time>2015-08-19T11:01:29Z</time></trkpt><trkpt lat="51.9556032401" lon="-1.8930097483"><ele>244.79</ele><time>2015-08-19T11:01:40Z</time></trkpt><trkpt lat="51.9556231890" lon="-1.8929674197"><ele>244.31</ele><time>2015-08-19T11:01:43Z</time></trkpt><trkpt lat="51.9556600694" lon="-1.8929037172"><ele>243.35</ele><time>2015-08-19T11:01:48Z</time></trkpt><trkpt lat="51.9556804374" lon="-1.8928592093"><ele>243.35</ele><time>2015-08-19T11:01:51Z</time></trkpt><trkpt lat="51.9557637535" lon="-1.8926795851"><ele>242.39</ele><time>2015-08-19T11:02:05Z</time></trkpt><trkpt lat="51.9557987060" lon="-1.8925885577"><ele>241.91</ele><time>2015-08-19T11:02:12Z</time></trkpt><trkpt lat="51.9558175653" lon="-1.8925421219"><ele>241.91</ele><time>2015-08-19T11:02:15Z</time></trkpt><trkpt lat="51.9558883924" lon="-1.8923878111"><ele>241.43</ele><time>2015-08-19T11:02:27Z</time></trkpt><trkpt lat="51.9559225067" lon="-1.8923339155"><ele>240.47</ele><time>2015-08-19T11:02:31Z</time></trkpt><trkpt lat="51.9559449703" lon="-1.8922868930"><ele>239.99</ele><time>2015-08-19T11:02:35Z</time></trkpt><trkpt lat="51.9559738878" lon="-1.8922295608"><ele>240.47</ele><time>2015-08-19T11:02:39Z</time></trkpt><trkpt lat="51.9559937529" lon="-1.8921794370"><ele>239.99</ele><time>2015-08-19T11:02:43Z</time></trkpt><trkpt lat="51.9560303818" lon="-1.8920718133"><ele>239.99</ele><time>2015-08-19T11:02:51Z</time></trkpt><trkpt lat="51.9560504146" lon="-1.8920281436"><ele>239.51</ele><time>2015-08-19T11:02:54Z</time></trkpt><trkpt lat="51.9560697768" lon="-1.8919751700"><ele>239.02</ele><time>2015-08-19T11:02:58Z</time></trkpt><trkpt lat="51.9560924079" lon="-1.8919367809"><ele>239.02</ele><time>2015-08-19T11:03:01Z</time></trkpt><trkpt lat="51.9561996125" lon="-1.8917460926"><ele>237.10</ele><time>2015-08-19T11:03:15Z</time></trkpt><trkpt lat="51.9562391751" lon="-1.8916692305"><ele>236.14</ele><time>2015-08-19T11:03:21Z</time></trkpt><trkpt lat="51.9563155342" lon="-1.8915516324"><ele>235.66</ele><time>2015-08-19T11:03:30Z</time></trkpt><trkpt lat="51.9563527498" lon="-1.8914641254"><ele>234.70</ele><time>2015-08-19T11:03:36Z</time></trkpt><trkpt lat="51.9563996047" lon="-1.8913525622"><ele>234.22</ele><time>2015-08-19T11:03:44Z</time></trkpt><trkpt lat="51.9564089924" lon="-1.8913073000"><ele>233.74</ele><time>2015-08-19T11:03:47Z</time></trkpt><trkpt lat="51.9564198889" lon="-1.8912617024"><ele>233.74</ele><time>2015-08-19T11:03:50Z</time></trkpt><trkpt lat="51.9564400893" lon="-1.8912075553"><ele>233.26</ele><time>2015-08-19T11:03:54Z</time></trkpt><trkpt lat="51.9564543385" lon="-1.8911399134"><ele>232.78</ele><time>2015-08-19T11:03:59Z</time></trkpt><trkpt lat="51.9564576913" lon="-1.8911117502"><ele>232.78</ele><time>2015-08-19T11:04:01Z</time></trkpt><trkpt lat="51.9564662408" lon="-1.8910416774"><ele>232.30</ele><time>2015-08-19T11:04:06Z</time></trkpt><trkpt lat="51.9565141015" lon="-1.8909450341"><ele>231.33</ele><time>2015-08-19T11:04:13Z</time></trkpt><trkpt lat="51.9566000160" lon="-1.8908461276"><ele>230.85</ele><time>2015-08-19T11:04:21Z</time></trkpt><trkpt lat="51.9567050412" lon="-1.8906549364"><ele>229.89</ele><time>2015-08-19T11:04:36Z</time></trkpt><trkpt lat="51.9567684084" lon="-1.8905179761"><ele>229.41</ele><time>2015-08-19T11:04:47Z</time></trkpt><trkpt lat="51.9568042830" lon="-1.8904240988"><ele>228.45</ele><time>2015-08-19T11:04:54Z</time></trkpt><trkpt lat="51.9568363018" lon="-1.8903360888"><ele>227.49</ele><time>2015-08-19T11:05:01Z</time></trkpt><trkpt lat="51.9569093920" lon="-1.8901785929"><ele>227.01</ele><time>2015-08-19T11:05:14Z</time></trkpt><trkpt lat="51.9569279999" lon="-1.8901495077"><ele>227.01</ele><time>2015-08-19T11:05:16Z</time></trkpt><trkpt lat="51.9570046104" lon="-1.8899960350"><ele>226.05</ele><time>2015-08-19T11:05:30Z</time></trkpt><trkpt lat="51.9570958056" lon="-1.8898552191"><ele>224.61</ele><time>2015-08-19T11:05:43Z</time></trkpt><trkpt lat="51.9572160859" lon="-1.8896662910"><ele>223.64</ele><time>2015-08-19T11:06:01Z</time></trkpt><trkpt lat="51.9573715702" lon="-1.8894621916"><ele>222.68</ele><time>2015-08-19T11:06:17Z</time></trkpt><trkpt lat="51.9574201852" lon="-1.8894288316"><ele>223.16</ele><time>2015-08-19T11:06:26Z</time></trkpt><trkpt lat="51.9575863983" lon="-1.8892670609"><ele>222.68</ele><time>2015-08-19T11:06:43Z</time></trkpt><trkpt lat="51.9577150606" lon="-1.8892382272"><ele>223.16</ele><time>2015-08-19T11:06:59Z</time></trkpt><trkpt lat="51.9577505160" lon="-1.8891684897"><ele>223.64</ele><time>2015-08-19T11:07:09Z</time></trkpt><trkpt lat="51.9578117039" lon="-1.8890891969"><ele>224.61</ele><time>2015-08-19T11:07:24Z</time></trkpt><trkpt lat="51.9578148890" lon="-1.8890859280"><ele>224.12</ele><time>2015-08-19T11:07:48Z</time></trkpt><trkpt lat="51.9578220136" lon="-1.8890747800"><ele>224.61</ele><time>2015-08-19T11:08:21Z</time></trkpt><trkpt lat="51.9578234386" lon="-1.8890805636"><ele>224.61</ele><time>2015-08-19T11:08:49Z</time></trkpt><trkpt lat="51.9578217622" lon="-1.8890814856"><ele>224.12</ele><time>2015-08-19T11:09:23Z</time></trkpt><trkpt lat="51.9578246120" lon="-1.8890736904"><ele>223.64</ele><time>2015-08-19T11:09:30Z</time></trkpt><trkpt lat="51.9578452315" lon="-1.8889346346"><ele>224.61</ele><time>2015-08-19T11:09:43Z</time></trkpt><trkpt lat="51.9578818604" lon="-1.8887901306"><ele>225.57</ele><time>2015-08-19T11:09:55Z</time></trkpt><trkpt lat="51.9579357561" lon="-1.8886376638"><ele>227.01</ele><time>2015-08-19T11:10:07Z</time></trkpt><trkpt lat="51.9579610694" lon="-1.8885731231"><ele>227.01</ele><time>2015-08-19T11:10:13Z</time></trkpt><trkpt lat="51.9579843711" lon="-1.8885347340"><ele>226.05</ele><time>2015-08-19T11:10:16Z</time></trkpt><trkpt lat="51.9580051582" lon="-1.8884736300"><ele>227.01</ele><time>2015-08-19T11:10:21Z</time></trkpt><trkpt lat="51.9580137916" lon="-1.8884484842"><ele>227.01</ele><time>2015-08-19T11:10:23Z</time></trkpt><trkpt lat="51.9580723811" lon="-1.8883065786"><ele>227.01</ele><time>2015-08-19T11:10:34Z</time></trkpt><trkpt lat="51.9581042323" lon="-1.8881723844"><ele>227.01</ele><time>2015-08-19T11:10:44Z</time></trkpt><trkpt lat="51.9581132010" lon="-1.8881320674"><ele>227.01</ele><time>2015-08-19T11:10:47Z</time></trkpt><trkpt lat="51.9581869617" lon="-1.8879266270"><ele>227.01</ele><time>2015-08-19T11:11:02Z</time></trkpt><trkpt lat="51.9581991155" lon="-1.8878739886"><ele>227.49</ele><time>2015-08-19T11:11:07Z</time></trkpt><trkpt lat="51.9582402706" lon="-1.8877708074"><ele>227.49</ele><time>2015-08-19T11:11:15Z</time></trkpt><trkpt lat="51.9582749717" lon="-1.8876613397"><ele>227.49</ele><time>2015-08-19T11:11:27Z</time></trkpt><trkpt lat="51.9583068229" lon="-1.8875732459"><ele>227.49</ele><time>2015-08-19T11:11:34Z</time></trkpt><trkpt lat="51.9583378360" lon="-1.8875099625"><ele>226.53</ele><time>2015-08-19T11:11:39Z</time></trkpt><trkpt lat="51.9584010355" lon="-1.8873341940"><ele>225.09</ele><time>2015-08-19T11:11:52Z</time></trkpt><trkpt lat="51.9584110100" lon="-1.8872973975"><ele>225.57</ele><time>2015-08-19T11:11:55Z</time></trkpt><trkpt lat="51.9584255107" lon="-1.8872555718"><ele>224.61</ele><time>2015-08-19T11:11:58Z</time></trkpt><trkpt lat="51.9584802445" lon="-1.8871180248"><ele>222.68</ele><time>2015-08-19T11:12:11Z</time></trkpt><trkpt lat="51.9584949967" lon="-1.8870646320"><ele>222.68</ele><time>2015-08-19T11:12:25Z</time></trkpt><trkpt lat="51.9585555140" lon="-1.8868825771"><ele>221.72</ele><time>2015-08-19T11:12:40Z</time></trkpt><trkpt lat="51.9586016983" lon="-1.8867088202"><ele>222.20</ele><time>2015-08-19T11:12:53Z</time></trkpt><trkpt lat="51.9586610422" lon="-1.8865602929"><ele>223.64</ele><time>2015-08-19T11:13:08Z</time></trkpt><trkpt lat="51.9586736988" lon="-1.8865352310"><ele>223.16</ele><time>2015-08-19T11:13:11Z</time></trkpt><trkpt lat="51.9586815778" lon="-1.8865135219"><ele>224.12</ele><time>2015-08-19T11:13:26Z</time></trkpt><trkpt lat="51.9586809911" lon="-1.8865069002"><ele>223.64</ele><time>2015-08-19T11:13:49Z</time></trkpt><trkpt lat="51.9586836733" lon="-1.8864961714"><ele>223.64</ele><time>2015-08-19T11:14:24Z</time></trkpt><trkpt lat="51.9587115012" lon="-1.8864025455"><ele>224.61</ele><time>2015-08-19T11:14:39Z</time></trkpt><trkpt lat="51.9587438554" lon="-1.8862888869"><ele>226.53</ele><time>2015-08-19T11:14:48Z</time></trkpt><trkpt lat="51.9587947335" lon="-1.8861331511"><ele>227.97</ele><time>2015-08-19T11:15:02Z</time></trkpt><trkpt lat="51.9587994274" lon="-1.8861236796"><ele>227.97</ele><time>2015-08-19T11:15:03Z</time></trkpt><trkpt lat="51.9588634651" lon="-1.8859567959"><ele>228.93</ele><time>2015-08-19T11:15:17Z</time></trkpt><trkpt lat="51.9588703383" lon="-1.8859339133"><ele>229.41</ele><time>2015-08-19T11:15:19Z</time></trkpt><trkpt lat="51.9589040335" lon="-1.8858567998"><ele>230.37</ele><time>2015-08-19T11:15:27Z</time></trkpt><trkpt lat="51.9589218870" lon="-1.8858054187"><ele>230.85</ele><time>2015-08-19T11:15:31Z</time></trkpt><trkpt lat="51.9589747768" lon="-1.8856723141"><ele>231.81</ele><time>2015-08-19T11:15:44Z</time></trkpt><trkpt lat="51.9590469450" lon="-1.8855190929"><ele>233.26</ele><time>2015-08-19T11:15:58Z</time></trkpt><trkpt lat="51.9590528961" lon="-1.8855072744"><ele>232.78</ele><time>2015-08-19T11:15:59Z</time></trkpt><trkpt lat="51.9591233041" lon="-1.8853640277"><ele>234.70</ele><time>2015-08-19T11:16:12Z</time></trkpt><trkpt lat="51.9592032675" lon="-1.8851796258"><ele>235.66</ele><time>2015-08-19T11:16:31Z</time></trkpt><trkpt lat="51.9592552353" lon="-1.8850381393"><ele>237.10</ele><time>2015-08-19T11:16:46Z</time></trkpt><trkpt lat="51.9593528844" lon="-1.8848916236"><ele>239.02</ele><time>2015-08-19T11:17:00Z</time></trkpt><trkpt lat="51.9594156649" lon="-1.8847726844"><ele>240.47</ele><time>2015-08-19T11:17:12Z</time></trkpt><trkpt lat="51.9595114700" lon="-1.8846234027"><ele>241.43</ele><time>2015-08-19T11:17:29Z</time></trkpt><trkpt lat="51.9595921878" lon="-1.8844822515"><ele>243.35</ele><time>2015-08-19T11:17:46Z</time></trkpt><trkpt lat="51.9596864004" lon="-1.8843198940"><ele>245.27</ele><time>2015-08-19T11:18:03Z</time></trkpt><trkpt lat="51.9597993046" lon="-1.8841477297"><ele>246.23</ele><time>2015-08-19T11:18:18Z</time></trkpt><trkpt lat="51.9598137215" lon="-1.8840939179"><ele>247.20</ele><time>2015-08-19T11:18:33Z</time></trkpt><trkpt lat="51.9599575549" lon="-1.8838970270"><ele>249.12</ele><time>2015-08-19T11:18:47Z</time></trkpt><trkpt lat="51.9600292202" lon="-1.8837268744"><ele>251.04</ele><time>2015-08-19T11:19:04Z</time></trkpt><trkpt lat="51.9601057470" lon="-1.8835497648"><ele>251.52</ele><time>2015-08-19T11:19:19Z</time></trkpt><trkpt lat="51.9602085929" lon="-1.8833160773"><ele>255.85</ele><time>2015-08-19T11:19:34Z</time></trkpt><trkpt lat="51.9602690265" lon="-1.8830977287"><ele>256.81</ele><time>2015-08-19T11:19:46Z</time></trkpt><trkpt lat="51.9603318907" lon="-1.8829634506"><ele>256.81</ele><time>2015-08-19T11:20:02Z</time></trkpt><trkpt lat="51.9603363331" lon="-1.8829663843"><ele>258.73</ele><time>2015-08-19T11:20:08Z</time></trkpt><trkpt lat="51.9603468105" lon="-1.8829741795"><ele>257.77</ele><time>2015-08-19T11:20:26Z</time></trkpt><trkpt lat="51.9603540190" lon="-1.8829770293"><ele>257.77</ele><time>2015-08-19T11:20:54Z</time></trkpt><trkpt lat="51.9603569526" lon="-1.8829772808"><ele>257.29</ele><time>2015-08-19T11:21:18Z</time></trkpt><trkpt lat="51.9603592157" lon="-1.8829534762"><ele>257.77</ele><time>2015-08-19T11:21:34Z</time></trkpt><trkpt lat="51.9604423642" lon="-1.8827305175"><ele>259.21</ele><time>2015-08-19T11:21:48Z</time></trkpt><trkpt lat="51.9605328888" lon="-1.8825485464"><ele>260.65</ele><time>2015-08-19T11:22:02Z</time></trkpt><trkpt lat="51.9606430270" lon="-1.8824210577"><ele>261.14</ele><time>2015-08-19T11:22:13Z</time></trkpt><trkpt lat="51.9607624691" lon="-1.8822701834"><ele>262.58</ele><time>2015-08-19T11:22:27Z</time></trkpt><trkpt lat="51.9608330447" lon="-1.8821691815"><ele>263.06</ele><time>2015-08-19T11:22:34Z</time></trkpt><trkpt lat="51.9609000999" lon="-1.8821141962"><ele>263.06</ele><time>2015-08-19T11:22:40Z</time></trkpt><trkpt lat="51.9610342104" lon="-1.8819789123"><ele>264.02</ele><time>2015-08-19T11:22:54Z</time></trkpt><trkpt lat="51.9610828254" lon="-1.8819395173"><ele>264.02</ele><time>2015-08-19T11:22:59Z</time></trkpt><trkpt lat="51.9611379784" lon="-1.8818981107"><ele>263.06</ele><time>2015-08-19T11:23:06Z</time></trkpt><trkpt lat="51.9612200372" lon="-1.8818226736"><ele>264.98</ele><time>2015-08-19T11:23:17Z</time></trkpt><trkpt lat="51.9612460211" lon="-1.8819174729"><ele>262.58</ele><time>2015-08-19T11:23:32Z</time></trkpt><trkpt lat="51.9612384774" lon="-1.8819341529"><ele>263.06</ele><time>2015-08-19T11:23:52Z</time></trkpt><trkpt lat="51.9612140860" lon="-1.8819532637"><ele>262.58</ele><time>2015-08-19T11:23:58Z</time></trkpt><trkpt lat="51.9611619506" lon="-1.8819822650"><ele>263.06</ele><time>2015-08-19T11:24:03Z</time></trkpt><trkpt lat="51.9611426722" lon="-1.8820266891"><ele>262.58</ele><time>2015-08-19T11:24:16Z</time></trkpt><trkpt lat="51.9611415826" lon="-1.8820301257"><ele>262.58</ele><time>2015-08-19T11:24:25Z</time></trkpt><trkpt lat="51.9610586017" lon="-1.8821151182"><ele>261.62</ele><time>2015-08-19T11:24:40Z</time></trkpt><trkpt lat="51.9610699173" lon="-1.8821057305"><ele>261.62</ele><time>2015-08-19T11:24:49Z</time></trkpt><trkpt lat="51.9610973261" lon="-1.8820691016"><ele>261.14</ele><time>2015-08-19T11:24:53Z</time></trkpt><trkpt lat="51.9611512218" lon="-1.8820274435"><ele>262.10</ele><time>2015-08-19T11:25:08Z</time></trkpt><trkpt lat="51.9611497968" lon="-1.8820263539"><ele>261.62</ele><time>2015-08-19T11:25:12Z</time></trkpt><trkpt lat="51.9611624535" lon="-1.8820096739"><ele>261.62</ele><time>2015-08-19T11:25:14Z</time></trkpt><trkpt lat="51.9612344541" lon="-1.8819353264"><ele>263.06</ele><time>2015-08-19T11:25:24Z</time></trkpt><trkpt lat="51.9612264074" lon="-1.8818928301"><ele>263.54</ele><time>2015-08-19T11:25:29Z</time></trkpt><trkpt lat="51.9612230547" lon="-1.8818541896"><ele>264.98</ele><time>2015-08-19T11:25:31Z</time></trkpt><trkpt lat="51.9612269942" lon="-1.8818127830"><ele>264.02</ele><time>2015-08-19T11:25:34Z</time></trkpt><trkpt lat="51.9612628687" lon="-1.8817515112"><ele>265.46</ele><time>2015-08-19T11:25:38Z</time></trkpt><trkpt lat="51.9612821471" lon="-1.8816930894"><ele>265.46</ele><time>2015-08-19T11:25:42Z</time></trkpt><trkpt lat="51.9613725040" lon="-1.8816012237"><ele>264.50</ele><time>2015-08-19T11:25:52Z</time></trkpt><trkpt lat="51.9613865018" lon="-1.8815153092"><ele>264.50</ele><time>2015-08-19T11:25:56Z</time></trkpt><trkpt lat="51.9613969792" lon="-1.8814362679"><ele>264.50</ele><time>2015-08-19T11:26:00Z</time></trkpt><trkpt lat="51.9614242204" lon="-1.8813678715"><ele>264.98</ele><time>2015-08-19T11:26:04Z</time></trkpt><trkpt lat="51.9615015853" lon="-1.8810507841"><ele>264.98</ele><time>2015-08-19T11:26:20Z</time></trkpt><trkpt lat="51.9615638629" lon="-1.8807919510"><ele>264.50</ele><time>2015-08-19T11:26:33Z</time></trkpt><trkpt lat="51.9616053533" lon="-1.8805644661"><ele>263.54</ele><time>2015-08-19T11:26:46Z</time></trkpt><trkpt lat="51.9616517890" lon="-1.8803645577"><ele>262.10</ele><time>2015-08-19T11:26:57Z</time></trkpt><trkpt lat="51.9617076963" lon="-1.8801305350"><ele>258.73</ele><time>2015-08-19T11:27:11Z</time></trkpt><trkpt lat="51.9617433194" lon="-1.8799480610"><ele>256.81</ele><time>2015-08-19T11:27:20Z</time></trkpt><trkpt lat="51.9617620111" lon="-1.8798766471"><ele>256.81</ele><time>2015-08-19T11:27:24Z</time></trkpt><trkpt lat="51.9618118834" lon="-1.8797015492"><ele>253.44</ele><time>2015-08-19T11:27:34Z</time></trkpt><trkpt lat="51.9618252106" lon="-1.8796525989"><ele>252.96</ele><time>2015-08-19T11:27:38Z</time></trkpt><trkpt lat="51.9618332572" lon="-1.8796147127"><ele>251.52</ele><time>2015-08-19T11:27:42Z</time></trkpt><trkpt lat="51.9618453272" lon="-1.8795844540"><ele>251.04</ele><time>2015-08-19T11:27:46Z</time></trkpt><trkpt lat="51.9618652761" lon="-1.8794364296"><ele>249.12</ele><time>2015-08-19T11:27:55Z</time></trkpt><trkpt lat="51.9618988875" lon="-1.8793035764"><ele>247.20</ele><time>2015-08-19T11:28:03Z</time></trkpt><trkpt lat="51.9619302358" lon="-1.8791010696"><ele>245.27</ele><time>2015-08-19T11:28:15Z</time></trkpt><trkpt lat="51.9619306549" lon="-1.8790909275"><ele>244.31</ele><time>2015-08-19T11:28:16Z</time></trkpt><trkpt lat="51.9619520288" lon="-1.8789730780"><ele>242.39</ele><time>2015-08-19T11:28:22Z</time></trkpt><trkpt lat="51.9620122947" lon="-1.8787402287"><ele>240.47</ele><time>2015-08-19T11:28:36Z</time></trkpt><trkpt lat="51.9620730635" lon="-1.8785618618"><ele>238.06</ele><time>2015-08-19T11:28:47Z</time></trkpt><trkpt lat="51.9621442258" lon="-1.8783629593"><ele>235.66</ele><time>2015-08-19T11:29:00Z</time></trkpt><trkpt lat="51.9622211717" lon="-1.8781818263"><ele>232.78</ele><time>2015-08-19T11:29:13Z</time></trkpt><trkpt lat="51.9623131212" lon="-1.8779905513"><ele>231.33</ele><time>2015-08-19T11:29:25Z</time></trkpt><trkpt lat="51.9623562880" lon="-1.8778711930"><ele>229.41</ele><time>2015-08-19T11:29:33Z</time></trkpt><trkpt lat="51.9623747282" lon="-1.8778089993"><ele>228.45</ele><time>2015-08-19T11:29:37Z</time></trkpt><trkpt lat="51.9624072500" lon="-1.8776955921"><ele>227.97</ele><time>2015-08-19T11:29:45Z</time></trkpt><trkpt lat="51.9624528475" lon="-1.8776777387"><ele>227.49</ele><time>2015-08-19T11:29:50Z</time></trkpt><trkpt lat="51.9625279494" lon="-1.8776976038"><ele>227.49</ele><time>2015-08-19T11:29:57Z</time></trkpt><trkpt lat="51.9626084156" lon="-1.8775179796"><ele>224.61</ele><time>2015-08-19T11:30:13Z</time></trkpt><trkpt lat="51.9626198150" lon="-1.8773816898"><ele>224.12</ele><time>2015-08-19T11:30:26Z</time></trkpt><trkpt lat="51.9626396801" lon="-1.8771137204"><ele>221.72</ele><time>2015-08-19T11:30:41Z</time></trkpt><trkpt lat="51.9626068231" lon="-1.8769078609"><ele>219.80</ele><time>2015-08-19T11:30:57Z</time></trkpt><trkpt lat="51.9625830185" lon="-1.8766502012"><ele>215.95</ele><time>2015-08-19T11:31:13Z</time></trkpt><trkpt lat="51.9625886343" lon="-1.8766240496"><ele>215.95</ele><time>2015-08-19T11:31:18Z</time></trkpt><trkpt lat="51.9625901431" lon="-1.8765741773"><ele>215.47</ele><time>2015-08-19T11:31:25Z</time></trkpt><trkpt lat="51.9625041448" lon="-1.8763147574"><ele>213.55</ele><time>2015-08-19T11:31:42Z</time></trkpt><trkpt lat="51.9624666777" lon="-1.8761839159"><ele>211.63</ele><time>2015-08-19T11:31:50Z</time></trkpt><trkpt lat="51.9624587148" lon="-1.8761054613"><ele>211.15</ele><time>2015-08-19T11:31:53Z</time></trkpt><trkpt lat="51.9624456391" lon="-1.8760529067"><ele>211.15</ele><time>2015-08-19T11:31:55Z</time></trkpt><trkpt lat="51.9624033943" lon="-1.8759677466"><ele>210.19</ele><time>2015-08-19T11:32:07Z</time></trkpt><trkpt lat="51.9623965211" lon="-1.8759466242"><ele>210.19</ele><time>2015-08-19T11:32:27Z</time></trkpt><trkpt lat="51.9623601437" lon="-1.8758174591"><ele>209.22</ele><time>2015-08-19T11:32:43Z</time></trkpt><trkpt lat="51.9623661786" lon="-1.8757459614"><ele>209.22</ele><time>2015-08-19T11:32:47Z</time></trkpt><trkpt lat="51.9624302164" lon="-1.8755439576"><ele>209.22</ele><time>2015-08-19T11:33:01Z</time></trkpt><trkpt lat="51.9624788314" lon="-1.8754901458"><ele>209.22</ele><time>2015-08-19T11:33:16Z</time></trkpt><trkpt lat="51.9624818489" lon="-1.8754933309"><ele>209.22</ele><time>2015-08-19T11:33:18Z</time></trkpt><trkpt lat="51.9625251833" lon="-1.8754526787"><ele>208.74</ele><time>2015-08-19T11:33:23Z</time></trkpt><trkpt lat="51.9626224134" lon="-1.8753254414"><ele>209.22</ele><time>2015-08-19T11:33:40Z</time></trkpt><trkpt lat="51.9626574498" lon="-1.8752552010"><ele>209.70</ele><time>2015-08-19T11:33:48Z</time></trkpt><trkpt lat="51.9627387542" lon="-1.8750832044"><ele>210.19</ele><time>2015-08-19T11:34:01Z</time></trkpt><trkpt lat="51.9627801608" lon="-1.8749489263"><ele>211.63</ele><time>2015-08-19T11:34:16Z</time></trkpt><trkpt lat="51.9627819210" lon="-1.8749007303"><ele>210.67</ele><time>2015-08-19T11:34:19Z</time></trkpt><trkpt lat="51.9627817534" lon="-1.8748501875"><ele>211.15</ele><time>2015-08-19T11:34:22Z</time></trkpt><trkpt lat="51.9627848547" lon="-1.8745722435"><ele>211.63</ele><time>2015-08-19T11:34:36Z</time></trkpt><trkpt lat="51.9628129341" lon="-1.8744971417"><ele>213.07</ele><time>2015-08-19T11:34:40Z</time></trkpt><trkpt lat="51.9628233276" lon="-1.8744487781"><ele>212.59</ele><time>2015-08-19T11:34:43Z</time></trkpt><trkpt lat="51.9628553465" lon="-1.8744113110"><ele>212.11</ele><time>2015-08-19T11:34:47Z</time></trkpt><trkpt lat="51.9628575258" lon="-1.8743765261"><ele>212.59</ele><time>2015-08-19T11:34:49Z</time></trkpt><trkpt lat="51.9628824200" lon="-1.8742894381"><ele>213.55</ele><time>2015-08-19T11:34:56Z</time></trkpt><trkpt lat="51.9628936518" lon="-1.8742249813"><ele>214.03</ele><time>2015-08-19T11:35:00Z</time></trkpt><trkpt lat="51.9629331306" lon="-1.8741195370"><ele>214.51</ele><time>2015-08-19T11:35:07Z</time></trkpt><trkpt lat="51.9629544206" lon="-1.8739982508"><ele>215.47</ele><time>2015-08-19T11:35:15Z</time></trkpt><trkpt lat="51.9629622996" lon="-1.8739042059"><ele>215.95</ele><time>2015-08-19T11:35:27Z</time></trkpt><trkpt lat="51.9629627187" lon="-1.8739022780"><ele>216.43</ele><time>2015-08-19T11:35:29Z</time></trkpt><trkpt lat="51.9629885349" lon="-1.8738380726"><ele>215.47</ele><time>2015-08-19T11:35:33Z</time></trkpt><trkpt lat="51.9629952405" lon="-1.8737993483"><ele>215.95</ele><time>2015-08-19T11:35:35Z</time></trkpt><trkpt lat="51.9630296063" lon="-1.8736051396"><ele>217.40</ele><time>2015-08-19T11:35:49Z</time></trkpt><trkpt lat="51.9630448613" lon="-1.8735471368"><ele>216.43</ele><time>2015-08-19T11:35:53Z</time></trkpt><trkpt lat="51.9630855974" lon="-1.8734792434"><ele>217.40</ele><time>2015-08-19T11:35:58Z</time></trkpt><trkpt lat="51.9631862640" lon="-1.8732476514"><ele>218.36</ele><time>2015-08-19T11:36:13Z</time></trkpt><trkpt lat="51.9632513076" lon="-1.8730127905"><ele>219.32</ele><time>2015-08-19T11:36:28Z</time></trkpt><trkpt lat="51.9632338732" lon="-1.8728749920"><ele>219.32</ele><time>2015-08-19T11:36:36Z</time></trkpt><trkpt lat="51.9632287603" lon="-1.8726770114"><ele>219.80</ele><time>2015-08-19T11:36:49Z</time></trkpt><trkpt lat="51.9632347953" lon="-1.8726682104"><ele>219.32</ele><time>2015-08-19T11:37:02Z</time></trkpt><trkpt lat="51.9632151816" lon="-1.8726770114"><ele>218.84</ele><time>2015-08-19T11:37:28Z</time></trkpt><trkpt lat="51.9631943107" lon="-1.8726744130"><ele>219.32</ele><time>2015-08-19T11:37:32Z</time></trkpt><trkpt lat="51.9631312788" lon="-1.8726325873"><ele>218.36</ele><time>2015-08-19T11:37:39Z</time></trkpt><trkpt lat="51.9630424306" lon="-1.8726721499"><ele>218.84</ele><time>2015-08-19T11:37:45Z</time></trkpt><trkpt lat="51.9629510678" lon="-1.8727156520"><ele>217.88</ele><time>2015-08-19T11:37:53Z</time></trkpt><trkpt lat="51.9628634769" lon="-1.8727579806"><ele>217.88</ele><time>2015-08-19T11:38:02Z</time></trkpt><trkpt lat="51.9627981819" lon="-1.8727333378"><ele>217.40</ele><time>2015-08-19T11:38:15Z</time></trkpt><trkpt lat="51.9628001098" lon="-1.8727401271"><ele>217.40</ele><time>2015-08-19T11:38:23Z</time></trkpt></trkseg></trk></gpx>